PORTS® Data Listing: 8545240 Philadelphia, PA

CO-OPS RAW PORTS DATA

************************      PRELIMINARY DATA      ************************** 

     THIS RAW DATA HAS NOT BEEN SUBJECT TO THE NATIONAL OCEAN SERVICE'S        
     QUALITY CONTROL OR QUALITY ASSURANCE PROCEDURES AND DOES NOT MEET         
     THE CRITERIA AND STANDARDS OF OFFICIAL NATIONAL OCEAN SERVICE             
     DATA.  IT IS RELEASED FOR LIMITED PUBLIC USE AS PRELIMINARY DATA TO       
     BE USED ONLY WITH APPROPRIATE CAUTION.                                    

************************      PRELIMINARY DATA      ************************** 


       CD   -   Calendar date
       T    -   Time
       TZ   -   Timezone
       PW   -   Predicted water level (feet above MLLW)
       OW   -   Observed water level (feet above MLLW)
       WS   -   Wind speed (knots)
       WD   -   Wind direction (degrees true)
       WG   -   Wind gust (knots)
       AT   -   Air temperature (degrees farenheit)
       WT   -   Water temperature (degrees farenheit)
       AP   -   Air pressure (millibars)
       SA   -   Salinty (PSU - Practical Salinity Units)
       SG   -   Specific gravity
       RH   -   Relative humidity
       AG   -   Air gap (feet)
       VI   -   Visibility (nautical miles)

       ** NOTE **
       A variable that has its data fields filled with "9"s, indicates that
       data was not collected for that sample period.
       **********


STATION NAME: Philadelphia (8545240)
****************************************************************************************************
    CD       T    TZ    PW     OW    WS   WD   WG    AT    WT    AP    SA    SG     RH    AG   VI
****************************************************************************************************
2019/12/03 06:12 EST    5.37   6.30 -999 -999 -999  35.6  42.4 1002.1 -9.9 -9.999 -99.9 -99.99 -9.99
2019/12/03 06:18 EST    5.39   6.31 -999 -999 -999  35.4  42.6 1002.1 -9.9 -9.999 -99.9 -99.99 -9.99
2019/12/03 06:24 EST    5.40   6.33 -999 -999 -999  35.4  42.4 1002.3 -9.9 -9.999 -99.9 -99.99 -9.99
2019/12/03 06:30 EST    5.40   6.32 -999 -999 -999  35.2  42.4 1002.3 -9.9 -9.999 -99.9 -99.99 -9.99
2019/12/03 06:36 EST    5.39   6.32 -999 -999 -999  35.1  42.4 1002.3 -9.9 -9.999 -99.9 -99.99 -9.99
2019/12/03 06:42 EST    5.37   6.31 -999 -999 -999  35.1  42.4 1002.2 -9.9 -9.999 -99.9 -99.99 -9.99
2019/12/03 06:48 EST    5.34   6.27 -999 -999 -999  34.9  42.4 1002.2 -9.9 -9.999 -99.9 -99.99 -9.99
2019/12/03 06:54 EST    5.30   6.24 -999 -999 -999  34.9  42.4 1002.2 -9.9 -9.999 -99.9 -99.99 -9.99
2019/12/03 07:00 EST    5.25   6.21 -999 -999 -999  34.5  42.4 1002.3 -9.9 -9.999 -99.9 -99.99 -9.99
2019/12/03 07:06 EST    5.19   6.19 -999 -999 -999  34.5  42.4 1002.3 -9.9 -9.999 -99.9 -99.99 -9.99
2019/12/03 07:12 EST    5.13   6.16 -999 -999 -999  34.3  42.4 1002.2 -9.9 -9.999 -99.9 -99.99 -9.99
2019/12/03 07:18 EST    5.05   6.10 -999 -999 -999  34.3  42.4 1002.2 -9.9 -9.999 -99.9 -99.99 -9.99
2019/12/03 07:24 EST    4.98   6.04 -999 -999 -999  34.3  42.4 1002.1 -9.9 -9.999 -99.9 -99.99 -9.99
2019/12/03 07:30 EST    4.89   5.99 -999 -999 -999  34.2  42.4 1002.2 -9.9 -9.999 -99.9 -99.99 -9.99
2019/12/03 07:36 EST    4.80   5.93 -999 -999 -999  34.3  42.4 1002.2 -9.9 -9.999 -99.9 -99.99 -9.99
2019/12/03 07:42 EST    4.71   5.88 -999 -999 -999  34.2  42.4 1002.3 -9.9 -9.999 -99.9 -99.99 -9.99
2019/12/03 07:48 EST    4.62   5.80 -999 -999 -999  34.5  42.4 1002.4 -9.9 -9.999 -99.9 -99.99 -9.99
2019/12/03 07:54 EST    4.52   5.73 -999 -999 -999  34.5  42.4 1002.4 -9.9 -9.999 -99.9 -99.99 -9.99
2019/12/03 08:00 EST    4.41   5.65 -999 -999 -999  34.7  42.4 1002.6 -9.9 -9.999 -99.9 -99.99 -9.99
2019/12/03 08:06 EST    4.31   5.55 -999 -999 -999  35.2  42.4 1002.8 -9.9 -9.999 -99.9 -99.99 -9.99
2019/12/03 08:12 EST    4.20   5.46 -999 -999 -999  35.4  42.4 1002.8 -9.9 -9.999 -99.9 -99.99 -9.99
2019/12/03 08:18 EST    4.09   5.36 -999 -999 -999  35.6  42.4 1002.7 -9.9 -9.999 -99.9 -99.99 -9.99
2019/12/03 08:24 EST    3.99 -99.99 -999 -999 -999 -99.9 -99.9 -999.9 -9.9 -9.999 -99.9 -99.99 -9.99
2019/12/03 08:30 EST    3.88 -99.99 -999 -999 -999 -99.9 -99.9 -999.9 -9.9 -9.999 -99.9 -99.99 -9.99
2019/12/03 08:36 EST    3.77 -99.99 -999 -999 -999 -99.9 -99.9 -999.9 -9.9 -9.999 -99.9 -99.99 -9.99
2019/12/03 08:42 EST    3.66 -99.99 -999 -999 -999 -99.9 -99.9 -999.9 -9.9 -9.999 -99.9 -99.99 -9.99
2019/12/03 08:48 EST    3.55 -99.99 -999 -999 -999 -99.9 -99.9 -999.9 -9.9 -9.999 -99.9 -99.99 -9.99
2019/12/03 08:54 EST    3.44 -99.99 -999 -999 -999 -99.9 -99.9 -999.9 -9.9 -9.999 -99.9 -99.99 -9.99
2019/12/03 09:00 EST    3.33 -99.99 -999 -999 -999 -99.9 -99.9 -999.9 -9.9 -9.999 -99.9 -99.99 -9.99
2019/12/03 09:06 EST    3.22 -99.99 -999 -999 -999 -99.9 -99.9 -999.9 -9.9 -9.999 -99.9 -99.99 -9.99
2019/12/03 09:12 EST    3.11 -99.99 -999 -999 -999 -99.9 -99.9 -999.9 -9.9 -9.999 -99.9 -99.99 -9.99
2019/12/03 09:18 EST    3.00 -99.99 -999 -999 -999 -99.9 -99.9 -999.9 -9.9 -9.999 -99.9 -99.99 -9.99
2019/12/03 09:24 EST    2.89 -99.99 -999 -999 -999 -99.9 -99.9 -999.9 -9.9 -9.999 -99.9 -99.99 -9.99
2019/12/03 09:30 EST    2.78 -99.99 -999 -999 -999 -99.9 -99.9 -999.9 -9.9 -9.999 -99.9 -99.99 -9.99
2019/12/03 09:36 EST    2.68 -99.99 -999 -999 -999 -99.9 -99.9 -999.9 -9.9 -9.999 -99.9 -99.99 -9.99
2019/12/03 09:42 EST    2.57 -99.99 -999 -999 -999 -99.9 -99.9 -999.9 -9.9 -9.999 -99.9 -99.99 -9.99
2019/12/03 09:48 EST    2.47 -99.99 -999 -999 -999 -99.9 -99.9 -999.9 -9.9 -9.999 -99.9 -99.99 -9.99
2019/12/03 09:54 EST    2.37 -99.99 -999 -999 -999 -99.9 -99.9 -999.9 -9.9 -9.999 -99.9 -99.99 -9.99
2019/12/03 10:00 EST    2.27 -99.99 -999 -999 -999 -99.9 -99.9 -999.9 -9.9 -9.999 -99.9 -99.99 -9.99
2019/12/03 10:06 EST    2.17 -99.99 -999 -999 -999 -99.9 -99.9 -999.9 -9.9 -9.999 -99.9 -99.99 -9.99
2019/12/03 10:12 EST    2.08 -99.99 -999 -999 -999 -99.9 -99.9 -999.9 -9.9 -9.999 -99.9 -99.99 -9.99
2019/12/03 10:18 EST    1.98 -99.99 -999 -999 -999 -99.9 -99.9 -999.9 -9.9 -9.999 -99.9 -99.99 -9.99
2019/12/03 10:24 EST    1.89 -99.99 -999 -999 -999 -99.9 -99.9 -999.9 -9.9 -9.999 -99.9 -99.99 -9.99
2019/12/03 10:30 EST    1.80 -99.99 -999 -999 -999 -99.9 -99.9 -999.9 -9.9 -9.999 -99.9 -99.99 -9.99
2019/12/03 10:36 EST    1.71 -99.99 -999 -999 -999 -99.9 -99.9 -999.9 -9.9 -9.999 -99.9 -99.99 -9.99
2019/12/03 10:42 EST    1.63 -99.99 -999 -999 -999 -99.9 -99.9 -999.9 -9.9 -9.999 -99.9 -99.99 -9.99
2019/12/03 10:48 EST    1.54 -99.99 -999 -999 -999 -99.9 -99.9 -999.9 -9.9 -9.999 -99.9 -99.99 -9.99
2019/12/03 10:54 EST    1.46 -99.99 -999 -999 -999 -99.9 -99.9 -999.9 -9.9 -9.999 -99.9 -99.99 -9.99
2019/12/03 11:00 EST    1.38 -99.99 -999 -999 -999 -99.9 -99.9 -999.9 -9.9 -9.999 -99.9 -99.99 -9.99
2019/12/03 11:06 EST    1.30 -99.99 -999 -999 -999 -99.9 -99.9 -999.9 -9.9 -9.999 -99.9 -99.99 -9.99
2019/12/03 11:12 EST    1.22 -99.99 -999 -999 -999 -99.9 -99.9 -999.9 -9.9 -9.999 -99.9 -99.99 -9.99
2019/12/03 11:18 EST    1.14 -99.99 -999 -999 -999 -99.9 -99.9 -999.9 -9.9 -9.999 -99.9 -99.99 -9.99
2019/12/03 11:24 EST    1.07 -99.99 -999 -999 -999 -99.9 -99.9 -999.9 -9.9 -9.999 -99.9 -99.99 -9.99
2019/12/03 11:30 EST    0.99 -99.99 -999 -999 -999 -99.9 -99.9 -999.9 -9.9 -9.999 -99.9 -99.99 -9.99
2019/12/03 11:36 EST    0.92 -99.99 -999 -999 -999 -99.9 -99.9 -999.9 -9.9 -9.999 -99.9 -99.99 -9.99
2019/12/03 11:42 EST    0.85 -99.99 -999 -999 -999 -99.9 -99.9 -999.9 -9.9 -9.999 -99.9 -99.99 -9.99
2019/12/03 11:48 EST    0.78 -99.99 -999 -999 -999 -99.9 -99.9 -999.9 -9.9 -9.999 -99.9 -99.99 -9.99
2019/12/03 11:54 EST    0.71 -99.99 -999 -999 -999 -99.9 -99.9 -999.9 -9.9 -9.999 -99.9 -99.99 -9.99
2019/12/03 12:00 EST    0.65 -99.99 -999 -999 -999 -99.9 -99.9 -999.9 -9.9 -9.999 -99.9 -99.99 -9.99
2019/12/03 12:06 EST    0.58 -99.99 -999 -999 -999 -99.9 -99.9 -999.9 -9.9 -9.999 -99.9 -99.99 -9.99
2019/12/03 12:12 EST    0.53 -99.99 -999 -999 -999 -99.9 -99.9 -999.9 -9.9 -9.999 -99.9 -99.99 -9.99
2019/12/03 12:18 EST    0.48 -99.99 -999 -999 -999 -99.9 -99.9 -999.9 -9.9 -9.999 -99.9 -99.99 -9.99
2019/12/03 12:24 EST    0.43 -99.99 -999 -999 -999 -99.9 -99.9 -999.9 -9.9 -9.999 -99.9 -99.99 -9.99
2019/12/03 12:30 EST    0.39 -99.99 -999 -999 -999 -99.9 -99.9 -999.9 -9.9 -9.999 -99.9 -99.99 -9.99
2019/12/03 12:36 EST    0.36 -99.99 -999 -999 -999 -99.9 -99.9 -999.9 -9.9 -9.999 -99.9 -99.99 -9.99
2019/12/03 12:42 EST    0.33 -99.99 -999 -999 -999 -99.9 -99.9 -999.9 -9.9 -9.999 -99.9 -99.99 -9.99
2019/12/03 12:48 EST    0.32 -99.99 -999 -999 -999 -99.9 -99.9 -999.9 -9.9 -9.999 -99.9 -99.99 -9.99
2019/12/03 12:54 EST    0.31 -99.99 -999 -999 -999 -99.9 -99.9 -999.9 -9.9 -9.999 -99.9 -99.99 -9.99
2019/12/03 13:00 EST    0.32 -99.99 -999 -999 -999 -99.9 -99.9 -999.9 -9.9 -9.999 -99.9 -99.99 -9.99
2019/12/03 13:06 EST    0.34 -99.99 -999 -999 -999 -99.9 -99.9 -999.9 -9.9 -9.999 -99.9 -99.99 -9.99
2019/12/03 13:12 EST    0.37 -99.99 -999 -999 -999 -99.9 -99.9 -999.9 -9.9 -9.999 -99.9 -99.99 -9.99
2019/12/03 13:18 EST    0.41   1.47 -999 -999 -999  42.3  42.6 1002.2 -9.9 -9.999 -99.9 -99.99 -9.99
2019/12/03 13:24 EST    0.47   1.48 -999 -999 -999  41.9  42.6 1002.3 -9.9 -9.999 -99.9 -99.99 -9.99
2019/12/03 13:30 EST    0.54   1.53 -999 -999 -999  41.9  42.6 1002.2 -9.9 -9.999 -99.9 -99.99 -9.99
2019/12/03 13:36 EST    0.62   1.57 -999 -999 -999  42.1  42.6 1002.2 -9.9 -9.999 -99.9 -99.99 -9.99
2019/12/03 13:42 EST    0.71   1.63 -999 -999 -999  42.3  42.6 1002.3 -9.9 -9.999 -99.9 -99.99 -9.99
2019/12/03 13:48 EST    0.82   1.72 -999 -999 -999  41.9  42.6 1002.2 -9.9 -9.999 -99.9 -99.99 -9.99
2019/12/03 13:54 EST    0.94   1.82 -999 -999 -999  42.3  42.6 1002.2 -9.9 -9.999 -99.9 -99.99 -9.99
2019/12/03 14:00 EST    1.07   1.95 -999 -999 -999  42.3  42.8 1002.2 -9.9 -9.999 -99.9 -99.99 -9.99
2019/12/03 14:06 EST    1.21   2.05 -999 -999 -999  42.3  42.6 1002.2 -9.9 -9.999 -99.9 -99.99 -9.99
2019/12/03 14:12 EST    1.36   2.17 -999 -999 -999  42.3  42.8 1002.3 -9.9 -9.999 -99.9 -99.99 -9.99
2019/12/03 14:18 EST    1.51   2.30 -999 -999 -999  42.3  42.8 1002.4 -9.9 -9.999 -99.9 -99.99 -9.99
2019/12/03 14:24 EST    1.67   2.43 -999 -999 -999  41.9  42.6 1002.5 -9.9 -9.999 -99.9 -99.99 -9.99
2019/12/03 14:30 EST    1.84   2.58 -999 -999 -999  41.9  42.6 1002.5 -9.9 -9.999 -99.9 -99.99 -9.99
2019/12/03 14:36 EST    2.01   2.72 -999 -999 -999  41.9  42.6 1002.5 -9.9 -9.999 -99.9 -99.99 -9.99
2019/12/03 14:42 EST    2.18   2.87 -999 -999 -999  41.9  42.6 1002.7 -9.9 -9.999 -99.9 -99.99 -9.99
2019/12/03 14:48 EST    2.35   2.99 -999 -999 -999  41.9  42.6 1002.6 -9.9 -9.999 -99.9 -99.99 -9.99
2019/12/03 14:54 EST    2.52   3.12 -999 -999 -999  42.1  42.6 1002.7 -9.9 -9.999 -99.9 -99.99 -9.99
2019/12/03 15:00 EST    2.69   3.23 -999 -999 -999  41.9  42.6 1002.7 -9.9 -9.999 -99.9 -99.99 -9.99
2019/12/03 15:06 EST    2.85   3.35 -999 -999 -999  42.1  42.6 1002.8 -9.9 -9.999 -99.9 -99.99 -9.99
2019/12/03 15:12 EST    3.01   3.52 -999 -999 -999  41.9  42.6 1002.9 -9.9 -9.999 -99.9 -99.99 -9.99
2019/12/03 15:18 EST    3.17   3.64 -999 -999 -999  41.9  42.8 1002.9 -9.9 -9.999 -99.9 -99.99 -9.99
2019/12/03 15:24 EST    3.32   3.75 -999 -999 -999  41.9  42.8 1002.8 -9.9 -9.999 -99.9 -99.99 -9.99
2019/12/03 15:30 EST    3.46   3.88 -999 -999 -999  41.9  42.8 1002.9 -9.9 -9.999 -99.9 -99.99 -9.99
2019/12/03 15:36 EST    3.60   3.98 -999 -999 -999  41.5  42.8 1003.0 -9.9 -9.999 -99.9 -99.99 -9.99
2019/12/03 15:42 EST    3.73   4.09 -999 -999 -999  41.2  42.8 1003.0 -9.9 -9.999 -99.9 -99.99 -9.99
2019/12/03 15:48 EST    3.85   4.20 -999 -999 -999  41.2  42.8 1003.0 -9.9 -9.999 -99.9 -99.99 -9.99
2019/12/03 15:54 EST    3.97   4.29 -999 -999 -999  41.2  42.8 1003.1 -9.9 -9.999 -99.9 -99.99 -9.99
2019/12/03 16:00 EST    4.08   4.40 -999 -999 -999  41.0  42.6 1003.2 -9.9 -9.999 -99.9 -99.99 -9.99
2019/12/03 16:06 EST    4.18   4.51 -999 -999 -999  40.8  42.6 1003.3 -9.9 -9.999 -99.9 -99.99 -9.99
2019/12/03 16:12 EST    4.28   4.63 -999 -999 -999  40.8  42.6 1003.4 -9.9 -9.999 -99.9 -99.99 -9.99
2019/12/03 16:18 EST    4.38   4.72 -999 -999 -999  40.6  42.6 1003.4 -9.9 -9.999 -99.9 -99.99 -9.99
2019/12/03 16:24 EST    4.48   4.83 -999 -999 -999  40.6  42.6 1003.4 -9.9 -9.999 -99.9 -99.99 -9.99
2019/12/03 16:30 EST    4.57   4.93 -999 -999 -999  40.5  42.6 1003.5 -9.9 -9.999 -99.9 -99.99 -9.99
2019/12/03 16:36 EST    4.66   5.03 -999 -999 -999  40.3  42.8 1003.5 -9.9 -9.999 -99.9 -99.99 -9.99
2019/12/03 16:42 EST    4.74   5.13 -999 -999 -999  40.3  42.8 1003.5 -9.9 -9.999 -99.9 -99.99 -9.99
2019/12/03 16:48 EST    4.83   5.23 -999 -999 -999  40.1  42.8 1003.5 -9.9 -9.999 -99.9 -99.99 -9.99
2019/12/03 16:54 EST    4.91   5.32 -999 -999 -999  40.1  42.8 1003.6 -9.9 -9.999 -99.9 -99.99 -9.99
2019/12/03 17:00 EST    5.00   5.41 -999 -999 -999  40.1  42.6 1003.6 -9.9 -9.999 -99.9 -99.99 -9.99
2019/12/03 17:06 EST    5.08   5.50 -999 -999 -999  39.9  42.6 1003.7 -9.9 -9.999 -99.9 -99.99 -9.99
2019/12/03 17:12 EST    5.17   5.58 -999 -999 -999  39.9  42.6 1003.7 -9.9 -9.999 -99.9 -99.99 -9.99
2019/12/03 17:18 EST    5.25   5.66 -999 -999 -999  39.7  42.6 1003.6 -9.9 -9.999 -99.9 -99.99 -9.99
2019/12/03 17:24 EST    5.33   5.74 -999 -999 -999  39.7  42.6 1003.6 -9.9 -9.999 -99.9 -99.99 -9.99
2019/12/03 17:30 EST    5.41   5.82 -999 -999 -999  39.7  42.6 1003.5 -9.9 -9.999 -99.9 -99.99 -9.99
2019/12/03 17:36 EST    5.49   5.89 -999 -999 -999  39.7  42.6 1003.5 -9.9 -9.999 -99.9 -99.99 -9.99
2019/12/03 17:42 EST    5.56   5.96 -999 -999 -999  39.7  42.6 1003.4 -9.9 -9.999 -99.9 -99.99 -9.99
2019/12/03 17:48 EST    5.64   6.04 -999 -999 -999  39.7  42.6 1003.6 -9.9 -9.999 -99.9 -99.99 -9.99
2019/12/03 17:54 EST    5.70   6.12 -999 -999 -999  39.6  42.6 1003.7 -9.9 -9.999 -99.9 -99.99 -9.99
2019/12/03 18:00 EST    5.76   6.19 -999 -999 -999  39.6  42.6 1003.8 -9.9 -9.999 -99.9 -99.99 -9.99
2019/12/03 18:06 EST    5.82   6.25 -999 -999 -999  39.6  42.6 1003.7 -9.9 -9.999 -99.9 -99.99 -9.99
2019/12/03 18:12 EST    5.87   6.27 -999 -999 -999  39.4  42.6 1003.7 -9.9 -9.999 -99.9 -99.99 -9.99
2019/12/03 18:18 EST    5.91   6.32 -999 -999 -999  39.4  42.6 1003.7 -9.9 -9.999 -99.9 -99.99 -9.99
2019/12/03 18:24 EST    5.95   6.36 -999 -999 -999  39.4  42.6 1003.6 -9.9 -9.999 -99.9 -99.99 -9.99
2019/12/03 18:30 EST    5.97   6.41 -999 -999 -999  39.2  42.6 1003.5 -9.9 -9.999 -99.9 -99.99 -9.99
2019/12/03 18:36 EST    5.99   6.43 -999 -999 -999  39.2  42.6 1003.5 -9.9 -9.999 -99.9 -99.99 -9.99
2019/12/03 18:42 EST    6.00   6.45 -999 -999 -999  39.0  42.6 1003.6 -9.9 -9.999 -99.9 -99.99 -9.99
2019/12/03 18:48 EST    6.00   6.46 -999 -999 -999  39.0  42.6 1003.5 -9.9 -9.999 -99.9 -99.99 -9.99
2019/12/03 18:54 EST    5.98   6.47 -999 -999 -999  38.8  42.6 1003.7 -9.9 -9.999 -99.9 -99.99 -9.99
2019/12/03 19:00 EST    5.96   6.50 -999 -999 -999  38.8  42.6 1003.6 -9.9 -9.999 -99.9 -99.99 -9.99
2019/12/03 19:06 EST    5.93   6.45 -999 -999 -999  38.7  42.6 1004.0 -9.9 -9.999 -99.9 -99.99 -9.99
2019/12/03 19:12 EST    5.89   6.44 -999 -999 -999  38.7  42.6 1004.0 -9.9 -9.999 -99.9 -99.99 -9.99
2019/12/03 19:18 EST    5.84   6.43 -999 -999 -999  38.5  42.6 1003.9 -9.9 -9.999 -99.9 -99.99 -9.99
2019/12/03 19:24 EST    5.78   6.40 -999 -999 -999  38.5  42.6 1003.8 -9.9 -9.999 -99.9 -99.99 -9.99
2019/12/03 19:30 EST    5.72   6.35 -999 -999 -999  38.1  42.6 1003.7 -9.9 -9.999 -99.9 -99.99 -9.99
2019/12/03 19:36 EST    5.64   6.29 -999 -999 -999  38.1  42.6 1003.5 -9.9 -9.999 -99.9 -99.99 -9.99
2019/12/03 19:42 EST    5.56   6.22 -999 -999 -999  37.8  42.6 1003.8 -9.9 -9.999 -99.9 -99.99 -9.99
2019/12/03 19:48 EST    5.48   6.18 -999 -999 -999  37.8  42.6 1003.8 -9.9 -9.999 -99.9 -99.99 -9.99
2019/12/03 19:54 EST    5.39   6.10 -999 -999 -999  37.6  42.6 1003.8 -9.9 -9.999 -99.9 -99.99 -9.99
2019/12/03 20:00 EST    5.29   6.04 -999 -999 -999  37.6  42.6 1003.7 -9.9 -9.999 -99.9 -99.99 -9.99
2019/12/03 20:06 EST    5.20   5.97 -999 -999 -999  37.4  42.6 1003.5 -9.9 -9.999 -99.9 -99.99 -9.99
2019/12/03 20:12 EST    5.09   5.90 -999 -999 -999  37.2  42.6 1003.7 -9.9 -9.999 -99.9 -99.99 -9.99
2019/12/03 20:18 EST    4.99   5.81 -999 -999 -999  37.2  42.6 1003.8 -9.9 -9.999 -99.9 -99.99 -9.99
2019/12/03 20:24 EST    4.88   5.74 -999 -999 -999  37.2  42.6 1003.8 -9.9 -9.999 -99.9 -99.99 -9.99
2019/12/03 20:30 EST    4.77   5.64 -999 -999 -999  37.0  42.6 1003.8 -9.9 -9.999 -99.9 -99.99 -9.99
2019/12/03 20:36 EST    4.66   5.56 -999 -999 -999  36.9  42.6 1003.8 -9.9 -9.999 -99.9 -99.99 -9.99
2019/12/03 20:42 EST    4.55   5.47 -999 -999 -999  36.7  42.6 1003.9 -9.9 -9.999 -99.9 -99.99 -9.99
2019/12/03 20:48 EST    4.44   5.37 -999 -999 -999  36.7  42.6 1004.1 -9.9 -9.999 -99.9 -99.99 -9.99
2019/12/03 20:54 EST    4.33   5.27 -999 -999 -999  36.7  42.6 1004.2 -9.9 -9.999 -99.9 -99.99 -9.99
2019/12/03 21:00 EST    4.21   5.18 -999 -999 -999  36.7  42.6 1004.3 -9.9 -9.999 -99.9 -99.99 -9.99
2019/12/03 21:06 EST    4.10   5.08 -999 -999 -999  36.7  42.6 1004.3 -9.9 -9.999 -99.9 -99.99 -9.99
2019/12/03 21:12 EST    3.99   4.97 -999 -999 -999  36.7  42.6 1004.2 -9.9 -9.999 -99.9 -99.99 -9.99
2019/12/03 21:18 EST    3.88   4.88 -999 -999 -999  36.7  42.6 1004.1 -9.9 -9.999 -99.9 -99.99 -9.99
2019/12/03 21:24 EST    3.77   4.78 -999 -999 -999  36.7  42.6 1004.1 -9.9 -9.999 -99.9 -99.99 -9.99
2019/12/03 21:30 EST    3.65   4.69 -999 -999 -999  36.5  42.6 1004.2 -9.9 -9.999 -99.9 -99.99 -9.99
2019/12/03 21:36 EST    3.54   4.59 -999 -999 -999  36.7  42.6 1004.1 -9.9 -9.999 -99.9 -99.99 -9.99
2019/12/03 21:42 EST    3.43   4.49 -999 -999 -999  36.5  42.6 1004.3 -9.9 -9.999 -99.9 -99.99 -9.99
2019/12/03 21:48 EST    3.32   4.38 -999 -999 -999  36.5  42.6 1004.0 -9.9 -9.999 -99.9 -99.99 -9.99
2019/12/03 21:54 EST    3.21   4.28 -999 -999 -999  36.7  42.6 1004.0 -9.9 -9.999 -99.9 -99.99 -9.99
2019/12/03 22:00 EST    3.10   4.18 -999 -999 -999  36.7  42.6 1004.0 -9.9 -9.999 -99.9 -99.99 -9.99
2019/12/03 22:06 EST    3.00   4.08 -999 -999 -999  36.7  42.6 1004.0 -9.9 -9.999 -99.9 -99.99 -9.99
2019/12/03 22:12 EST    2.89   3.98 -999 -999 -999  36.7  42.6 1003.9 -9.9 -9.999 -99.9 -99.99 -9.99
2019/12/03 22:18 EST    2.78   3.88 -999 -999 -999  36.7  42.6 1003.8 -9.9 -9.999 -99.9 -99.99 -9.99
2019/12/03 22:24 EST    2.68   3.79 -999 -999 -999  36.7  42.6 1003.7 -9.9 -9.999 -99.9 -99.99 -9.99
2019/12/03 22:30 EST    2.58   3.68 -999 -999 -999  36.7  42.6 1003.6 -9.9 -9.999 -99.9 -99.99 -9.99
2019/12/03 22:36 EST    2.47   3.58 -999 -999 -999  36.7  42.6 1003.6 -9.9 -9.999 -99.9 -99.99 -9.99
2019/12/03 22:42 EST    2.37   3.47 -999 -999 -999  36.7  42.6 1003.5 -9.9 -9.999 -99.9 -99.99 -9.99
2019/12/03 22:48 EST    2.28   3.37 -999 -999 -999  36.7  42.6 1003.4 -9.9 -9.999 -99.9 -99.99 -9.99
2019/12/03 22:54 EST    2.18   3.27 -999 -999 -999  36.7  42.6 1003.4 -9.9 -9.999 -99.9 -99.99 -9.99
2019/12/03 23:00 EST    2.08   3.18 -999 -999 -999  36.7  42.6 1003.4 -9.9 -9.999 -99.9 -99.99 -9.99
2019/12/03 23:06 EST    1.99   3.07 -999 -999 -999  36.7  42.6 1003.4 -9.9 -9.999 -99.9 -99.99 -9.99
2019/12/03 23:12 EST    1.89   2.98 -999 -999 -999  36.7  42.6 1003.5 -9.9 -9.999 -99.9 -99.99 -9.99
2019/12/03 23:18 EST    1.80   2.87 -999 -999 -999  36.7  42.6 1003.7 -9.9 -9.999 -99.9 -99.99 -9.99
2019/12/03 23:24 EST    1.70   2.78 -999 -999 -999  36.7  42.6 1003.9 -9.9 -9.999 -99.9 -99.99 -9.99
2019/12/03 23:30 EST    1.61   2.69 -999 -999 -999  36.7  42.6 1003.6 -9.9 -9.999 -99.9 -99.99 -9.99
2019/12/03 23:36 EST    1.52   2.56 -999 -999 -999  36.7  42.6 1003.5 -9.9 -9.999 -99.9 -99.99 -9.99
2019/12/03 23:42 EST    1.42   2.47 -999 -999 -999  36.7  42.6 1003.7 -9.9 -9.999 -99.9 -99.99 -9.99
2019/12/03 23:48 EST    1.33   2.39 -999 -999 -999  36.5  42.6 1003.6 -9.9 -9.999 -99.9 -99.99 -9.99
2019/12/03 23:54 EST    1.24   2.29 -999 -999 -999  36.5  42.6 1003.7 -9.9 -9.999 -99.9 -99.99 -9.99
2019/12/04 00:00 EST    1.15   2.21 -999 -999 -999  36.5  42.6 1003.9 -9.9 -9.999 -99.9 -99.99 -9.99
2019/12/04 00:06 EST    1.06   2.11 -999 -999 -999  36.5  42.6 1003.8 -9.9 -9.999 -99.9 -99.99 -9.99
2019/12/04 00:12 EST    0.97   2.02 -999 -999 -999  36.5  42.6 1003.8 -9.9 -9.999 -99.9 -99.99 -9.99
2019/12/04 00:18 EST    0.88   1.93 -999 -999 -999  36.5  42.6 1003.8 -9.9 -9.999 -99.9 -99.99 -9.99
2019/12/04 00:24 EST    0.79   1.85 -999 -999 -999  36.5  42.6 1003.8 -9.9 -9.999 -99.9 -99.99 -9.99
2019/12/04 00:30 EST    0.70   1.76 -999 -999 -999  36.5  42.6 1003.5 -9.9 -9.999 -99.9 -99.99 -9.99
2019/12/04 00:36 EST    0.62   1.68 -999 -999 -999  36.5  42.6 1003.4 -9.9 -9.999 -99.9 -99.99 -9.99
2019/12/04 00:42 EST    0.54   1.60 -999 -999 -999  36.5  42.6 1003.4 -9.9 -9.999 -99.9 -99.99 -9.99
2019/12/04 00:48 EST    0.47   1.53 -999 -999 -999  36.5  42.6 1003.3 -9.9 -9.999 -99.9 -99.99 -9.99
2019/12/04 00:54 EST    0.40   1.47 -999 -999 -999  36.5  42.6 1003.2 -9.9 -9.999 -99.9 -99.99 -9.99
2019/12/04 01:00 EST    0.34   1.40 -999 -999 -999  36.5  42.6 1003.2 -9.9 -9.999 -99.9 -99.99 -9.99
2019/12/04 01:06 EST    0.28   1.36 -999 -999 -999  36.5  42.6 1003.2 -9.9 -9.999 -99.9 -99.99 -9.99
2019/12/04 01:12 EST    0.23   1.31 -999 -999 -999  36.5  42.6 1003.1 -9.9 -9.999 -99.9 -99.99 -9.99
2019/12/04 01:18 EST    0.20   1.28 -999 -999 -999  36.7  42.4 1003.2 -9.9 -9.999 -99.9 -99.99 -9.99
2019/12/04 01:24 EST    0.17   1.24 -999 -999 -999  36.7  42.4 1003.0 -9.9 -9.999 -99.9 -99.99 -9.99
2019/12/04 01:30 EST    0.15   1.24 -999 -999 -999  36.7  42.4 1003.0 -9.9 -9.999 -99.9 -99.99 -9.99
2019/12/04 01:36 EST    0.15   1.24 -999 -999 -999  36.7  42.4 1003.1 -9.9 -9.999 -99.9 -99.99 -9.99
2019/12/04 01:42 EST    0.16   1.26 -999 -999 -999  36.7  42.4 1003.1 -9.9 -9.999 -99.9 -99.99 -9.99
2019/12/04 01:48 EST    0.18   1.31 -999 -999 -999  36.9  42.6 1003.0 -9.9 -9.999 -99.9 -99.99 -9.99
2019/12/04 01:54 EST    0.21   1.37 -999 -999 -999  36.9  42.4 1003.0 -9.9 -9.999 -99.9 -99.99 -9.99
2019/12/04 02:00 EST    0.26   1.45 -999 -999 -999  36.7  42.4 1003.0 -9.9 -9.999 -99.9 -99.99 -9.99
2019/12/04 02:06 EST    0.32   1.57 -999 -999 -999  36.7  42.6 1003.1 -9.9 -9.999 -99.9 -99.99 -9.99
2019/12/04 02:12 EST    0.39   1.69 -999 -999 -999  36.7  42.6 1003.1 -9.9 -9.999 -99.9 -99.99 -9.99
2019/12/04 02:18 EST    0.47   1.83 -999 -999 -999  36.7  42.4 1002.8 -9.9 -9.999 -99.9 -99.99 -9.99
2019/12/04 02:24 EST    0.57   1.98 -999 -999 -999  36.7  42.4 1002.7 -9.9 -9.999 -99.9 -99.99 -9.99
2019/12/04 02:30 EST    0.67   2.15 -999 -999 -999  36.7  42.4 1002.8 -9.9 -9.999 -99.9 -99.99 -9.99
2019/12/04 02:36 EST    0.79   2.32 -999 -999 -999  36.7  42.4 1002.7 -9.9 -9.999 -99.9 -99.99 -9.99
2019/12/04 02:42 EST    0.91   2.49 -999 -999 -999  36.7  42.4 1002.7 -9.9 -9.999 -99.9 -99.99 -9.99
2019/12/04 02:48 EST    1.04   2.65 -999 -999 -999  36.7  42.3 1002.7 -9.9 -9.999 -99.9 -99.99 -9.99
2019/12/04 02:54 EST    1.18   2.82 -999 -999 -999  36.7  42.3 1002.6 -9.9 -9.999 -99.9 -99.99 -9.99
2019/12/04 03:00 EST    1.32   2.99 -999 -999 -999  36.7  42.3 1002.6 -9.9 -9.999 -99.9 -99.99 -9.99
2019/12/04 03:06 EST    1.46   3.15 -999 -999 -999  36.7  42.3 1002.5 -9.9 -9.999 -99.9 -99.99 -9.99
2019/12/04 03:12 EST    1.61   3.32 -999 -999 -999  36.7  42.3 1002.5 -9.9 -9.999 -99.9 -99.99 -9.99
2019/12/04 03:18 EST    1.75   3.46 -999 -999 -999  36.7  42.3 1002.4 -9.9 -9.999 -99.9 -99.99 -9.99
2019/12/04 03:24 EST    1.90   3.60 -999 -999 -999  36.7  42.3 1002.5 -9.9 -9.999 -99.9 -99.99 -9.99
2019/12/04 03:30 EST    2.04   3.73 -999 -999 -999  36.7  42.3 1002.3 -9.9 -9.999 -99.9 -99.99 -9.99
2019/12/04 03:36 EST    2.18   3.87 -999 -999 -999  36.7  42.3 1002.3 -9.9 -9.999 -99.9 -99.99 -9.99
2019/12/04 03:42 EST    2.32   4.00 -999 -999 -999  36.7  42.3 1002.4 -9.9 -9.999 -99.9 -99.99 -9.99
2019/12/04 03:48 EST    2.45   4.13 -999 -999 -999  36.7  42.3 1002.4 -9.9 -9.999 -99.9 -99.99 -9.99
2019/12/04 03:54 EST    2.58   4.25 -999 -999 -999  36.7  42.3 1002.3 -9.9 -9.999 -99.9 -99.99 -9.99
2019/12/04 04:00 EST    2.70   4.38 -999 -999 -999  36.7  42.3 1002.3 -9.9 -9.999 -99.9 -99.99 -9.99
2019/12/04 04:06 EST    2.82   4.51 -999 -999 -999  36.7  42.4 1002.3 -9.9 -9.999 -99.9 -99.99 -9.99
2019/12/04 04:12 EST    2.93   4.64 -999 -999 -999  36.7  42.3 1002.3 -9.9 -9.999 -99.9 -99.99 -9.99
2019/12/04 04:18 EST    3.04   4.77 -999 -999 -999  36.7  42.4 1002.3 -9.9 -9.999 -99.9 -99.99 -9.99
2019/12/04 04:24 EST    3.15   4.89 -999 -999 -999  36.7  42.4 1002.4 -9.9 -9.999 -99.9 -99.99 -9.99
2019/12/04 04:30 EST    3.25   5.01 -999 -999 -999  36.7  42.4 1002.4 -9.9 -9.999 -99.9 -99.99 -9.99
2019/12/04 04:36 EST    3.35   5.13 -999 -999 -999  36.7  42.4 1002.4 -9.9 -9.999 -99.9 -99.99 -9.99
2019/12/04 04:42 EST    3.44   5.25 -999 -999 -999  36.9  42.4 1002.5 -9.9 -9.999 -99.9 -99.99 -9.99
2019/12/04 04:48 EST    3.54   5.37 -999 -999 -999  36.9  42.4 1002.5 -9.9 -9.999 -99.9 -99.99 -9.99
2019/12/04 04:54 EST    3.63   5.48 -999 -999 -999  37.0  42.4 1002.5 -9.9 -9.999 -99.9 -99.99 -9.99
2019/12/04 05:00 EST    3.72   5.58 -999 -999 -999  37.0  42.4 1002.5 -9.9 -9.999 -99.9 -99.99 -9.99
2019/12/04 05:06 EST    3.81   5.69 -999 -999 -999  37.0  42.3 1002.5 -9.9 -9.999 -99.9 -99.99 -9.99
2019/12/04 05:12 EST    3.90   5.79 -999 -999 -999  37.0  42.4 1002.5 -9.9 -9.999 -99.9 -99.99 -9.99
2019/12/04 05:18 EST    4.00   5.88 -999 -999 -999  37.0  42.4 1002.5 -9.9 -9.999 -99.9 -99.99 -9.99
2019/12/04 05:24 EST    4.09   5.97 -999 -999 -999  37.0  42.4 1002.6 -9.9 -9.999 -99.9 -99.99 -9.99
2019/12/04 05:30 EST    4.18   6.06 -999 -999 -999  37.0  42.4 1002.7 -9.9 -9.999 -99.9 -99.99 -9.99
2019/12/04 05:36 EST    4.28   6.14 -999 -999 -999  37.0  42.4 1002.6 -9.9 -9.999 -99.9 -99.99 -9.99
2019/12/04 05:42 EST    4.37   6.23 -999 -999 -999  37.0  42.3 1002.7 -9.9 -9.999 -99.9 -99.99 -9.99
2019/12/04 05:48 EST    4.47   6.31 -999 -999 -999  37.0  42.4 1002.7 -9.9 -9.999 -99.9 -99.99 -9.99
2019/12/04 05:54 EST    4.57   6.39 -999 -999 -999  36.9  42.3 1002.7 -9.9 -9.999 -99.9 -99.99 -9.99
2019/12/04 06:00 EST    4.66   6.46 -999 -999 -999  36.9  42.3 1002.7 -9.9 -9.999 -99.9 -99.99 -9.99
2019/12/04 06:06 EST    4.75   6.54 -999 -999 -999  36.9  42.3 1002.7 -9.9 -9.999 -99.9 -99.99 -9.99
2019/12/04 06:12 EST    4.84   6.61 -999 -999 -999  37.0  42.4 1002.7 -9.9 -9.999 -99.9 -99.99 -9.99
2019/12/04 06:18 EST    4.93   6.69 -999 -999 -999  37.0  42.3 1002.8 -9.9 -9.999 -99.9 -99.99 -9.99
2019/12/04 06:24 EST    5.01   6.77 -999 -999 -999  37.0  42.3 1002.8 -9.9 -9.999 -99.9 -99.99 -9.99
2019/12/04 06:30 EST    5.09   6.83 -999 -999 -999  37.0  42.3 1002.7 -9.9 -9.999 -99.9 -99.99 -9.99
2019/12/04 06:36 EST    5.16   6.90 -999 -999 -999  37.0  42.3 1002.6 -9.9 -9.999 -99.9 -99.99 -9.99
2019/12/04 06:42 EST    5.22   6.95 -999 -999 -999  36.9  42.4 1002.7 -9.9 -9.999 -99.9 -99.99 -9.99
2019/12/04 06:48 EST    5.27   6.99 -999 -999 -999  37.0  42.4 1002.8 -9.9 -9.999 -99.9 -99.99 -9.99
2019/12/04 06:54 EST    5.32   7.02 -999 -999 -999  36.7  42.3 1002.8 -9.9 -9.999 -99.9 -99.99 -9.99
2019/12/04 07:00 EST    5.36   7.05 -999 -999 -999  36.7  42.3 1002.7 -9.9 -9.999 -99.9 -99.99 -9.99
2019/12/04 07:06 EST    5.39   7.07 -999 -999 -999  36.7  42.3 1002.7 -9.9 -9.999 -99.9 -99.99 -9.99
2019/12/04 07:12 EST    5.41   7.08 -999 -999 -999  36.5  42.3 1002.7 -9.9 -9.999 -99.9 -99.99 -9.99
2019/12/04 07:18 EST    5.41   7.09 -999 -999 -999  36.5  42.3 1002.8 -9.9 -9.999 -99.9 -99.99 -9.99
2019/12/04 07:24 EST    5.41   7.09 -999 -999 -999  36.5  42.4 1002.8 -9.9 -9.999 -99.9 -99.99 -9.99
2019/12/04 07:30 EST    5.40   7.08 -999 -999 -999  36.5  42.3 1002.7 -9.9 -9.999 -99.9 -99.99 -9.99
2019/12/04 07:36 EST    5.38   7.06 -999 -999 -999  36.5  42.3 1002.7 -9.9 -9.999 -99.9 -99.99 -9.99
2019/12/04 07:42 EST    5.35   7.04 -999 -999 -999  36.7  42.4 1002.6 -9.9 -9.999 -99.9 -99.99 -9.99
2019/12/04 07:48 EST    5.31   7.01 -999 -999 -999  36.7  42.4 1002.6 -9.9 -9.999 -99.9 -99.99 -9.99
2019/12/04 07:54 EST    5.26   6.97 -999 -999 -999  36.5  42.3 1002.6 -9.9 -9.999 -99.9 -99.99 -9.99
2019/12/04 08:00 EST    5.20   6.92 -999 -999 -999  36.7  42.4 1002.6 -9.9 -9.999 -99.9 -99.99 -9.99
2019/12/04 08:06 EST    5.13   6.86 -999 -999 -999  36.9  42.3 1002.6 -9.9 -9.999 -99.9 -99.99 -9.99
2019/12/04 08:12 EST    5.06   6.79 -999 -999 -999  37.0  42.3 1002.6 -9.9 -9.999 -99.9 -99.99 -9.99
2019/12/04 08:18 EST    4.98   6.72 -999 -999 -999  37.0  42.4 1002.6 -9.9 -9.999 -99.9 -99.99 -9.99
2019/12/04 08:24 EST    4.90   6.65 -999 -999 -999  37.2  42.3 1002.5 -9.9 -9.999 -99.9 -99.99 -9.99
2019/12/04 08:30 EST    4.81   6.58 -999 -999 -999  37.6  42.4 1002.5 -9.9 -9.999 -99.9 -99.99 -9.99
2019/12/04 08:36 EST    4.72   6.49 -999 -999 -999  37.8  42.4 1002.5 -9.9 -9.999 -99.9 -99.99 -9.99
2019/12/04 08:42 EST    4.62   6.40 -999 -999 -999  37.8  42.4 1002.5 -9.9 -9.999 -99.9 -99.99 -9.99
2019/12/04 08:48 EST    4.52   6.31 -999 -999 -999  38.1  42.4 1002.6 -9.9 -9.999 -99.9 -99.99 -9.99
2019/12/04 08:54 EST    4.42   6.22 -999 -999 -999  38.3  42.4 1002.5 -9.9 -9.999 -99.9 -99.99 -9.99
2019/12/04 09:00 EST    4.31   6.11 -999 -999 -999  38.5  42.4 1002.5 -9.9 -9.999 -99.9 -99.99 -9.99
2019/12/04 09:06 EST    4.20   6.01 -999 -999 -999  38.5  42.4 1002.5 -9.9 -9.999 -99.9 -99.99 -9.99
2019/12/04 09:12 EST    4.10   5.90 -999 -999 -999  38.7  42.4 1002.5 -9.9 -9.999 -99.9 -99.99 -9.99
2019/12/04 09:18 EST    3.99   5.79 -999 -999 -999  38.7  42.3 1002.6 -9.9 -9.999 -99.9 -99.99 -9.99
2019/12/04 09:24 EST    3.88   5.70 -999 -999 -999  38.5  42.3 1002.5 -9.9 -9.999 -99.9 -99.99 -9.99
2019/12/04 09:30 EST    3.76   5.58 -999 -999 -999  38.5  42.3 1002.5 -9.9 -9.999 -99.9 -99.99 -9.99
2019/12/04 09:36 EST    3.65   5.48 -999 -999 -999  38.3  42.3 1002.5 -9.9 -9.999 -99.9 -99.99 -9.99
2019/12/04 09:42 EST    3.54   5.37 -999 -999 -999  38.5  42.4 1002.3 -9.9 -9.999 -99.9 -99.99 -9.99
2019/12/04 09:48 EST    3.43   5.25 -999 -999 -999  38.5  42.4 1002.3 -9.9 -9.999 -99.9 -99.99 -9.99
2019/12/04 09:54 EST    3.32   5.15 -999 -999 -999  38.7  42.4 1002.4 -9.9 -9.999 -99.9 -99.99 -9.99
2019/12/04 10:00 EST    3.20   5.04 -999 -999 -999  38.8  42.4 1002.5 -9.9 -9.999 -99.9 -99.99 -9.99
2019/12/04 10:06 EST    3.09   4.93 -999 -999 -999  39.0  42.4 1002.4 -9.9 -9.999 -99.9 -99.99 -9.99
2019/12/04 10:12 EST    2.98   4.82 -999 -999 -999  39.0  42.4 1002.3 -9.9 -9.999 -99.9 -99.99 -9.99
2019/12/04 10:18 EST    2.87   4.71 -999 -999 -999  39.0  42.4 1002.2 -9.9 -9.999 -99.9 -99.99 -9.99
2019/12/04 10:24 EST    2.76   4.60 -999 -999 -999  39.0  42.4 1002.2 -9.9 -9.999 -99.9 -99.99 -9.99
2019/12/04 10:30 EST    2.66   4.50 -999 -999 -999  39.2  42.4 1002.2 -9.9 -9.999 -99.9 -99.99 -9.99
2019/12/04 10:36 EST    2.55   4.39 -999 -999 -999  39.2  42.4 1002.2 -9.9 -9.999 -99.9 -99.99 -9.99
2019/12/04 10:42 EST    2.45   4.25 -999 -999 -999  39.4  42.3 1002.2 -9.9 -9.999 -99.9 -99.99 -9.99
2019/12/04 10:48 EST    2.35   4.18 -999 -999 -999  39.4  42.3 1002.1 -9.9 -9.999 -99.9 -99.99 -9.99
2019/12/04 10:54 EST    2.24   4.07 -999 -999 -999  39.6  42.4 1002.2 -9.9 -9.999 -99.9 -99.99 -9.99
2019/12/04 11:00 EST    2.15   3.97 -999 -999 -999  39.7  42.4 1002.1 -9.9 -9.999 -99.9 -99.99 -9.99
2019/12/04 11:06 EST    2.05   3.87 -999 -999 -999  39.9  42.4 1002.0 -9.9 -9.999 -99.9 -99.99 -9.99
2019/12/04 11:12 EST    1.96   3.77 -999 -999 -999  39.9  42.4 1001.9 -9.9 -9.999 -99.9 -99.99 -9.99
2019/12/04 11:18 EST    1.86   3.66 -999 -999 -999  40.3  42.4 1001.8 -9.9 -9.999 -99.9 -99.99 -9.99
2019/12/04 11:24 EST    1.77   3.55 -999 -999 -999  40.5  42.4 1001.7 -9.9 -9.999 -99.9 -99.99 -9.99
2019/12/04 11:30 EST    1.69   3.45 -999 -999 -999  40.8  42.4 1001.5 -9.9 -9.999 -99.9 -99.99 -9.99
2019/12/04 11:36 EST    1.60   3.34 -999 -999 -999  40.8  42.4 1001.4 -9.9 -9.999 -99.9 -99.99 -9.99
2019/12/04 11:42 EST    1.52   3.25 -999 -999 -999  40.8  42.4 1001.2 -9.9 -9.999 -99.9 -99.99 -9.99
2019/12/04 11:48 EST    1.43   3.14 -999 -999 -999  41.0  42.4 1001.0 -9.9 -9.999 -99.9 -99.99 -9.99
2019/12/04 11:54 EST    1.35   3.04 -999 -999 -999  41.2  42.4 1000.8 -9.9 -9.999 -99.9 -99.99 -9.99
2019/12/04 12:00 EST    1.27   2.94 -999 -999 -999  41.2  42.4 1000.6 -9.9 -9.999 -99.9 -99.99 -9.99
2019/12/04 12:06 EST    1.20   2.84 -999 -999 -999  41.5  42.4 1000.4 -9.9 -9.999 -99.9 -99.99 -9.99
2019/12/04 12:12 EST    1.12   2.75 -999 -999 -999  42.3  42.4 1000.3 -9.9 -9.999 -99.9 -99.99 -9.99
2019/12/04 12:18 EST    1.04   2.66 -999 -999 -999  41.9  42.4 1000.2 -9.9 -9.999 -99.9 -99.99 -9.99
2019/12/04 12:24 EST    0.97   2.57 -999 -999 -999  42.4  42.4 1000.1 -9.9 -9.999 -99.9 -99.99 -9.99
2019/12/04 12:30 EST    0.90   2.48 -999 -999 -999  42.4  42.4 1000.0 -9.9 -9.999 -99.9 -99.99 -9.99
2019/12/04 12:36 EST    0.83   2.40 -999 -999 -999  42.3  42.4 1000.0 -9.9 -9.999 -99.9 -99.99 -9.99
2019/12/04 12:42 EST    0.76   2.31 -999 -999 -999  42.4  42.4  999.8 -9.9 -9.999 -99.9 -99.99 -9.99
2019/12/04 12:48 EST    0.69   2.23 -999 -999 -999  42.4  42.4  999.8 -9.9 -9.999 -99.9 -99.99 -9.99
2019/12/04 12:54 EST    0.63   2.17 -999 -999 -999  42.6  42.4  999.7 -9.9 -9.999 -99.9 -99.99 -9.99
2019/12/04 13:00 EST    0.57   2.08 -999 -999 -999  42.4  42.4  999.6 -9.9 -9.999 -99.9 -99.99 -9.99
2019/12/04 13:06 EST    0.51   1.99 -999 -999 -999  42.4  42.4  999.6 -9.9 -9.999 -99.9 -99.99 -9.99
2019/12/04 13:12 EST    0.46   1.88 -999 -999 -999  42.4  42.4  999.6 -9.9 -9.999 -99.9 -99.99 -9.99
2019/12/04 13:18 EST    0.42   1.78 -999 -999 -999  42.6  42.4  999.4 -9.9 -9.999 -99.9 -99.99 -9.99
2019/12/04 13:24 EST    0.38   1.73 -999 -999 -999  42.8  42.4  999.4 -9.9 -9.999 -99.9 -99.99 -9.99
2019/12/04 13:30 EST    0.35   1.76 -999 -999 -999  43.0  42.4  999.3 -9.9 -9.999 -99.9 -99.99 -9.99
2019/12/04 13:36 EST    0.33   1.69 -999 -999 -999  43.0  42.4  999.2 -9.9 -9.999 -99.9 -99.99 -9.99
2019/12/04 13:42 EST    0.32   1.65 -999 -999 -999  43.0  42.4  999.2 -9.9 -9.999 -99.9 -99.99 -9.99
2019/12/04 13:48 EST    0.32   1.62 -999 -999 -999  43.0  42.4  999.1 -9.9 -9.999 -99.9 -99.99 -9.99
2019/12/04 13:54 EST    0.33   1.60 -999 -999 -999  43.0  42.4  999.0 -9.9 -9.999 -99.9 -99.99 -9.99
2019/12/04 14:00 EST    0.35   1.62 -999 -999 -999  43.0  42.4  999.0 -9.9 -9.999 -99.9 -99.99 -9.99
2019/12/04 14:06 EST    0.39   1.61 -999 -999 -999  43.0  42.4  999.0 -9.9 -9.999 -99.9 -99.99 -9.99
2019/12/04 14:12 EST    0.43   1.66 -999 -999 -999  43.2  42.4  999.0 -9.9 -9.999 -99.9 -99.99 -9.99
2019/12/04 14:18 EST    0.49   1.74 -999 -999 -999  43.2  42.4  999.0 -9.9 -9.999 -99.9 -99.99 -9.99
2019/12/04 14:24 EST    0.56   1.80 -999 -999 -999  43.2  42.4  999.0 -9.9 -9.999 -99.9 -99.99 -9.99
2019/12/04 14:30 EST    0.65   1.89 -999 -999 -999  43.2  42.4  999.1 -9.9 -9.999 -99.9 -99.99 -9.99
2019/12/04 14:36 EST    0.74   2.00 -999 -999 -999  43.2  42.4  999.2 -9.9 -9.999 -99.9 -99.99 -9.99
2019/12/04 14:42 EST    0.85   2.10 -999 -999 -999  43.2  42.4  999.1 -9.9 -9.999 -99.9 -99.99 -9.99
2019/12/04 14:48 EST    0.97   2.23 -999 -999 -999  43.3  42.4  999.1 -9.9 -9.999 -99.9 -99.99 -9.99
2019/12/04 14:54 EST    1.10   2.38 -999 -999 -999  43.3  42.4  999.1 -9.9 -9.999 -99.9 -99.99 -9.99
2019/12/04 15:00 EST    1.24   2.52 -999 -999 -999  43.3  42.4  999.1 -9.9 -9.999 -99.9 -99.99 -9.99
2019/12/04 15:06 EST    1.38   2.67 -999 -999 -999  43.2  42.4  999.2 -9.9 -9.999 -99.9 -99.99 -9.99
2019/12/04 15:12 EST    1.54   2.84 -999 -999 -999  43.2  42.4  999.2 -9.9 -9.999 -99.9 -99.99 -9.99
2019/12/04 15:18 EST    1.69   3.00 -999 -999 -999  43.3  42.4  999.2 -9.9 -9.999 -99.9 -99.99 -9.99
2019/12/04 15:24 EST    1.85   3.14 -999 -999 -999  43.3  42.4  999.2 -9.9 -9.999 -99.9 -99.99 -9.99
2019/12/04 15:30 EST    2.01   3.30 -999 -999 -999  43.3  42.4  999.2 -9.9 -9.999 -99.9 -99.99 -9.99
2019/12/04 15:36 EST    2.18   3.47 -999 -999 -999  43.3  42.4  999.3 -9.9 -9.999 -99.9 -99.99 -9.99
2019/12/04 15:42 EST    2.34   3.62 -999 -999 -999  43.3  42.4  999.3 -9.9 -9.999 -99.9 -99.99 -9.99
2019/12/04 15:48 EST    2.50   3.76 -999 -999 -999  43.2  42.4  999.4 -9.9 -9.999 -99.9 -99.99 -9.99
2019/12/04 15:54 EST    2.66   3.90 -999 -999 -999  42.8  42.4  999.5 -9.9 -9.999 -99.9 -99.99 -9.99
2019/12/04 16:00 EST    2.81   4.04 -999 -999 -999  42.6  42.4  999.6 -9.9 -9.999 -99.9 -99.99 -9.99
2019/12/04 16:06 EST    2.96   4.18 -999 -999 -999  42.4  42.4  999.6 -9.9 -9.999 -99.9 -99.99 -9.99
2019/12/04 16:12 EST    3.11   4.31 -999 -999 -999  42.4  42.4  999.7 -9.9 -9.999 -99.9 -99.99 -9.99
2019/12/04 16:18 EST    3.24   4.44 -999 -999 -999  42.3  42.4  999.7 -9.9 -9.999 -99.9 -99.99 -9.99
2019/12/04 16:24 EST    3.38   4.57 -999 -999 -999  42.1  42.4  999.7 -9.9 -9.999 -99.9 -99.99 -9.99
2019/12/04 16:30 EST    3.50   4.70 -999 -999 -999  41.9  42.4  999.8 -9.9 -9.999 -99.9 -99.99 -9.99
2019/12/04 16:36 EST    3.62   4.83 -999 -999 -999  41.9  42.4  999.9 -9.9 -9.999 -99.9 -99.99 -9.99
2019/12/04 16:42 EST    3.74   4.96 -999 -999 -999  41.5  42.4  999.9 -9.9 -9.999 -99.9 -99.99 -9.99
2019/12/04 16:48 EST    3.84   5.09 -999 -999 -999  41.4  42.4 1000.0 -9.9 -9.999 -99.9 -99.99 -9.99
2019/12/04 16:54 EST    3.95   5.22 -999 -999 -999  41.4  42.4 1000.1 -9.9 -9.999 -99.9 -99.99 -9.99
2019/12/04 17:00 EST    4.05   5.34 -999 -999 -999  41.2  42.4 1000.2 -9.9 -9.999 -99.9 -99.99 -9.99
2019/12/04 17:06 EST    4.14   5.44 -999 -999 -999  41.0  42.4 1000.2 -9.9 -9.999 -99.9 -99.99 -9.99
2019/12/04 17:12 EST    4.23   5.55 -999 -999 -999  40.8  42.4 1000.3 -9.9 -9.999 -99.9 -99.99 -9.99
2019/12/04 17:18 EST    4.32   5.66 -999 -999 -999  40.6  42.4 1000.4 -9.9 -9.999 -99.9 -99.99 -9.99
2019/12/04 17:24 EST    4.41   5.76 -999 -999 -999  40.1  42.4 1000.5 -9.9 -9.999 -99.9 -99.99 -9.99
2019/12/04 17:30 EST    4.50   5.86 -999 -999 -999  39.9  42.4 1000.6 -9.9 -9.999 -99.9 -99.99 -9.99
2019/12/04 17:36 EST    4.58   5.94 -999 -999 -999  39.9  42.4 1000.8 -9.9 -9.999 -99.9 -99.99 -9.99
2019/12/04 17:42 EST    4.67   6.03 -999 -999 -999  39.6  42.4 1000.8 -9.9 -9.999 -99.9 -99.99 -9.99
2019/12/04 17:48 EST    4.75   6.12 -999 -999 -999  39.4  42.4 1000.9 -9.9 -9.999 -99.9 -99.99 -9.99
2019/12/04 17:54 EST    4.84   6.19 -999 -999 -999  39.4  42.4 1001.0 -9.9 -9.999 -99.9 -99.99 -9.99
2019/12/04 18:00 EST    4.93   6.27 -999 -999 -999  39.2  42.4 1001.0 -9.9 -9.999 -99.9 -99.99 -9.99
2019/12/04 18:06 EST    5.01   6.35 -999 -999 -999  39.0  42.4 1001.0 -9.9 -9.999 -99.9 -99.99 -9.99
2019/12/04 18:12 EST    5.10   6.42 -999 -999 -999  39.0  42.4 1001.1 -9.9 -9.999 -99.9 -99.99 -9.99
2019/12/04 18:18 EST    5.18   6.50 -999 -999 -999  38.8  42.4 1001.1 -9.9 -9.999 -99.9 -99.99 -9.99
2019/12/04 18:24 EST    5.26   6.56 -999 -999 -999  38.8  42.4 1001.1 -9.9 -9.999 -99.9 -99.99 -9.99
2019/12/04 18:30 EST    5.34   6.62 -999 -999 -999  38.7  42.4 1001.2 -9.9 -9.999 -99.9 -99.99 -9.99
2019/12/04 18:36 EST    5.42   6.68 -999 -999 -999  38.5  42.4 1001.2 -9.9 -9.999 -99.9 -99.99 -9.99
2019/12/04 18:42 EST    5.50   6.75 -999 -999 -999  38.5  42.4 1001.2 -9.9 -9.999 -99.9 -99.99 -9.99
2019/12/04 18:48 EST    5.57   6.81 -999 -999 -999  38.5  42.4 1001.2 -9.9 -9.999 -99.9 -99.99 -9.99
2019/12/04 18:54 EST    5.63   6.86 -999 -999 -999  38.3  42.4 1001.3 -9.9 -9.999 -99.9 -99.99 -9.99
2019/12/04 19:00 EST    5.69   6.89 -999 -999 -999  38.3  42.4 1001.4 -9.9 -9.999 -99.9 -99.99 -9.99
2019/12/04 19:06 EST    5.74   6.92 -999 -999 -999  38.1  42.4 1001.5 -9.9 -9.999 -99.9 -99.99 -9.99
2019/12/04 19:12 EST    5.79   6.94 -999 -999 -999  37.9  42.4 1001.5 -9.9 -9.999 -99.9 -99.99 -9.99
2019/12/04 19:18 EST    5.82   6.95 -999 -999 -999  37.8  42.4 1001.6 -9.9 -9.999 -99.9 -99.99 -9.99
2019/12/04 19:24 EST    5.85   6.95 -999 -999 -999  37.8  42.4 1001.6 -9.9 -9.999 -99.9 -99.99 -9.99
2019/12/04 19:30 EST    5.87   6.94 -999 -999 -999  37.8  42.4 1001.6 -9.9 -9.999 -99.9 -99.99 -9.99
2019/12/04 19:36 EST    5.87   6.92 -999 -999 -999  37.8  42.4 1001.6 -9.9 -9.999 -99.9 -99.99 -9.99
2019/12/04 19:42 EST    5.87   6.91 -999 -999 -999  37.8  42.4 1001.6 -9.9 -9.999 -99.9 -99.99 -9.99
2019/12/04 19:48 EST    5.86   6.86 -999 -999 -999  37.8  42.4 1001.6 -9.9 -9.999 -99.9 -99.99 -9.99
2019/12/04 19:54 EST    5.84   6.82 -999 -999 -999  37.6  42.4 1001.6 -9.9 -9.999 -99.9 -99.99 -9.99
2019/12/04 20:00 EST    5.81   6.77 -999 -999 -999  37.4  42.4 1001.5 -9.9 -9.999 -99.9 -99.99 -9.99
2019/12/04 20:06 EST    5.77   6.69 -999 -999 -999  37.4  42.4 1001.6 -9.9 -9.999 -99.9 -99.99 -9.99
2019/12/04 20:12 EST    5.72   6.63 -999 -999 -999  37.4  42.4 1001.6 -9.9 -9.999 -99.9 -99.99 -9.99
2019/12/04 20:18 EST    5.66   6.55 -999 -999 -999  37.2  42.4 1001.6 -9.9 -9.999 -99.9 -99.99 -9.99
2019/12/04 20:24 EST    5.59   6.48 -999 -999 -999  37.2  42.4 1001.6 -9.9 -9.999 -99.9 -99.99 -9.99
2019/12/04 20:30 EST    5.52   6.41 -999 -999 -999  37.4  42.4 1001.6 -9.9 -9.999 -99.9 -99.99 -9.99
2019/12/04 20:36 EST    5.44   6.32 -999 -999 -999  37.4  42.4 1001.6 -9.9 -9.999 -99.9 -99.99 -9.99
2019/12/04 20:42 EST    5.35   6.24 -999 -999 -999  37.4  42.4 1001.7 -9.9 -9.999 -99.9 -99.99 -9.99
2019/12/04 20:48 EST    5.26   6.16 -999 -999 -999  37.4  42.4 1001.7 -9.9 -9.999 -99.9 -99.99 -9.99
2019/12/04 20:54 EST    5.17   6.07 -999 -999 -999  37.4  42.4 1001.7 -9.9 -9.999 -99.9 -99.99 -9.99
2019/12/04 21:00 EST    5.07   5.97 -999 -999 -999  37.4  42.4 1001.6 -9.9 -9.999 -99.9 -99.99 -9.99
2019/12/04 21:06 EST    4.97   5.88 -999 -999 -999  37.4  42.4 1001.6 -9.9 -9.999 -99.9 -99.99 -9.99
2019/12/04 21:12 EST    4.86   5.78 -999 -999 -999  37.6  42.4 1001.6 -9.9 -9.999 -99.9 -99.99 -9.99
2019/12/04 21:18 EST    4.75   5.68 -999 -999 -999  37.8  42.4 1001.5 -9.9 -9.999 -99.9 -99.99 -9.99
2019/12/04 21:24 EST    4.64   5.57 -999 -999 -999  37.8  42.4 1001.5 -9.9 -9.999 -99.9 -99.99 -9.99
2019/12/04 21:30 EST    4.53   5.48 -999 -999 -999  37.8  42.4 1001.5 -9.9 -9.999 -99.9 -99.99 -9.99
2019/12/04 21:36 EST    4.42   5.38 -999 -999 -999  37.9  42.4 1001.6 -9.9 -9.999 -99.9 -99.99 -9.99
2019/12/04 21:42 EST    4.30   5.27 -999 -999 -999  37.9  42.4 1001.7 -9.9 -9.999 -99.9 -99.99 -9.99
2019/12/04 21:48 EST    4.19   5.18 -999 -999 -999  37.9  42.4 1001.6 -9.9 -9.999 -99.9 -99.99 -9.99
2019/12/04 21:54 EST    4.07   5.07 -999 -999 -999  37.9  42.4 1001.6 -9.9 -9.999 -99.9 -99.99 -9.99
2019/12/04 22:00 EST    3.96   4.97 -999 -999 -999  37.9  42.4 1001.5 -9.9 -9.999 -99.9 -99.99 -9.99
2019/12/04 22:06 EST    3.84   4.87 -999 -999 -999  38.1  42.4 1001.5 -9.9 -9.999 -99.9 -99.99 -9.99
2019/12/04 22:12 EST    3.73   4.76 -999 -999 -999  38.1  42.4 1001.5 -9.9 -9.999 -99.9 -99.99 -9.99
2019/12/04 22:18 EST    3.61   4.66 -999 -999 -999  38.1  42.4 1001.5 -9.9 -9.999 -99.9 -99.99 -9.99
2019/12/04 22:24 EST    3.50   4.55 -999 -999 -999  37.9  42.4 1001.5 -9.9 -9.999 -99.9 -99.99 -9.99
2019/12/04 22:30 EST    3.39   4.45 -999 -999 -999  37.8  42.4 1001.4 -9.9 -9.999 -99.9 -99.99 -9.99
2019/12/04 22:36 EST    3.27   4.35 -999 -999 -999  37.8  42.3 1001.4 -9.9 -9.999 -99.9 -99.99 -9.99
2019/12/04 22:42 EST    3.16   4.24 -999 -999 -999  37.8  42.3 1001.3 -9.9 -9.999 -99.9 -99.99 -9.99
2019/12/04 22:48 EST    3.05   4.14 -999 -999 -999  37.8  42.3 1001.3 -9.9 -9.999 -99.9 -99.99 -9.99
2019/12/04 22:54 EST    2.94   4.03 -999 -999 -999  37.8  42.3 1001.3 -9.9 -9.999 -99.9 -99.99 -9.99
2019/12/04 23:00 EST    2.83   3.92 -999 -999 -999  37.8  42.3 1001.3 -9.9 -9.999 -99.9 -99.99 -9.99
2019/12/04 23:06 EST    2.72   3.82 -999 -999 -999  37.9  42.4 1001.3 -9.9 -9.999 -99.9 -99.99 -9.99
2019/12/04 23:12 EST    2.61   3.72 -999 -999 -999  37.9  42.3 1001.2 -9.9 -9.999 -99.9 -99.99 -9.99
2019/12/04 23:18 EST    2.51   3.62 -999 -999 -999  37.9  42.4 1001.2 -9.9 -9.999 -99.9 -99.99 -9.99
2019/12/04 23:24 EST    2.40   3.51 -999 -999 -999  37.9  42.4 1001.1 -9.9 -9.999 -99.9 -99.99 -9.99
2019/12/04 23:30 EST    2.30   3.40 -999 -999 -999  38.1  42.4 1001.1 -9.9 -9.999 -99.9 -99.99 -9.99
2019/12/04 23:36 EST    2.20   3.28 -999 -999 -999  38.1  42.3 1001.1 -9.9 -9.999 -99.9 -99.99 -9.99
2019/12/04 23:42 EST    2.10   3.18 -999 -999 -999  38.1  42.3 1001.1 -9.9 -9.999 -99.9 -99.99 -9.99
2019/12/04 23:48 EST    2.00   3.07 -999 -999 -999  38.3  42.3 1001.1 -9.9 -9.999 -99.9 -99.99 -9.99
2019/12/04 23:54 EST    1.91   2.97 -999 -999 -999  38.3  42.3 1001.1 -9.9 -9.999 -99.9 -99.99 -9.99
2019/12/05 00:00 EST    1.81   2.86 -999 -999 -999  38.3  42.3 1001.1 -9.9 -9.999 -99.9 -99.99 -9.99
2019/12/05 00:06 EST    1.72   2.75 -999 -999 -999  38.3  42.3 1001.2 -9.9 -9.999 -99.9 -99.99 -9.99
2019/12/05 00:12 EST    1.63   2.66 -999 -999 -999  38.1  42.3 1001.2 -9.9 -9.999 -99.9 -99.99 -9.99
2019/12/05 00:18 EST    1.53   2.56 -999 -999 -999  38.1  42.3 1001.2 -9.9 -9.999 -99.9 -99.99 -9.99
2019/12/05 00:24 EST    1.44   2.47 -999 -999 -999  37.8  42.3 1001.1 -9.9 -9.999 -99.9 -99.99 -9.99
2019/12/05 00:30 EST    1.35   2.36 -999 -999 -999  37.6  42.3 1001.2 -9.9 -9.999 -99.9 -99.99 -9.99
2019/12/05 00:36 EST    1.26   2.26 -999 -999 -999  37.4  42.3 1001.1 -9.9 -9.999 -99.9 -99.99 -9.99
2019/12/05 00:42 EST    1.17   2.16 -999 -999 -999  37.2  42.3 1001.1 -9.9 -9.999 -99.9 -99.99 -9.99
2019/12/05 00:48 EST    1.08   2.06 -999 -999 -999  37.2  42.3 1001.2 -9.9 -9.999 -99.9 -99.99 -9.99
2019/12/05 00:54 EST    1.00   1.97 -999 -999 -999  37.0  42.3 1001.2 -9.9 -9.999 -99.9 -99.99 -9.99
2019/12/05 01:00 EST    0.91   1.88 -999 -999 -999  37.2  42.3 1001.3 -9.9 -9.999 -99.9 -99.99 -9.99
2019/12/05 01:06 EST    0.82   1.79 -999 -999 -999  37.2  42.3 1001.3 -9.9 -9.999 -99.9 -99.99 -9.99
2019/12/05 01:12 EST    0.74   1.68 -999 -999 -999  37.2  42.3 1001.4 -9.9 -9.999 -99.9 -99.99 -9.99
2019/12/05 01:18 EST    0.66   1.59 -999 -999 -999  37.2  42.3 1001.4 -9.9 -9.999 -99.9 -99.99 -9.99
2019/12/05 01:24 EST    0.58   1.50 -999 -999 -999  37.2  42.3 1001.5 -9.9 -9.999 -99.9 -99.99 -9.99
2019/12/05 01:30 EST    0.50   1.41 -999 -999 -999  37.2  42.3 1001.6 -9.9 -9.999 -99.9 -99.99 -9.99
2019/12/05 01:36 EST    0.43   1.33 -999 -999 -999  37.0  42.3 1001.7 -9.9 -9.999 -99.9 -99.99 -9.99
2019/12/05 01:42 EST    0.36   1.25 -999 -999 -999  37.2  42.3 1002.0 -9.9 -9.999 -99.9 -99.99 -9.99
2019/12/05 01:48 EST    0.30   1.17 -999 -999 -999  37.2  42.3 1002.0 -9.9 -9.999 -99.9 -99.99 -9.99
2019/12/05 01:54 EST    0.25   1.10 -999 -999 -999  37.2  42.3 1002.0 -9.9 -9.999 -99.9 -99.99 -9.99
2019/12/05 02:00 EST    0.20   1.02 -999 -999 -999  37.2  42.3 1002.1 -9.9 -9.999 -99.9 -99.99 -9.99
2019/12/05 02:06 EST    0.17   0.95 -999 -999 -999  37.0  42.3 1002.1 -9.9 -9.999 -99.9 -99.99 -9.99
2019/12/05 02:12 EST    0.14   0.88 -999 -999 -999  37.0  42.3 1002.2 -9.9 -9.999 -99.9 -99.99 -9.99
2019/12/05 02:18 EST    0.12   0.82 -999 -999 -999  37.0  42.3 1002.3 -9.9 -9.999 -99.9 -99.99 -9.99
2019/12/05 02:24 EST    0.12   0.76 -999 -999 -999  36.9  42.3 1002.4 -9.9 -9.999 -99.9 -99.99 -9.99
2019/12/05 02:30 EST    0.13   0.71 -999 -999 -999  36.9  42.3 1002.5 -9.9 -9.999 -99.9 -99.99 -9.99
2019/12/05 02:36 EST    0.14   0.66 -999 -999 -999  36.7  42.3 1002.6 -9.9 -9.999 -99.9 -99.99 -9.99
2019/12/05 02:42 EST    0.18   0.63 -999 -999 -999  36.5  42.3 1002.7 -9.9 -9.999 -99.9 -99.99 -9.99
2019/12/05 02:48 EST    0.22   0.62 -999 -999 -999  36.5  42.3 1002.7 -9.9 -9.999 -99.9 -99.99 -9.99
2019/12/05 02:54 EST    0.28   0.62 -999 -999 -999  36.3  42.3 1002.8 -9.9 -9.999 -99.9 -99.99 -9.99
2019/12/05 03:00 EST    0.35   0.65 -999 -999 -999  36.3  42.3 1002.8 -9.9 -9.999 -99.9 -99.99 -9.99
2019/12/05 03:06 EST    0.43   0.70 -999 -999 -999  36.3  42.3 1002.9 -9.9 -9.999 -99.9 -99.99 -9.99
2019/12/05 03:12 EST    0.52   0.79 -999 -999 -999  36.1  42.3 1003.0 -9.9 -9.999 -99.9 -99.99 -9.99
2019/12/05 03:18 EST    0.63   0.91 -999 -999 -999  36.1  42.3 1003.0 -9.9 -9.999 -99.9 -99.99 -9.99
2019/12/05 03:24 EST    0.74   1.06 -999 -999 -999  36.1  42.3 1003.1 -9.9 -9.999 -99.9 -99.99 -9.99
2019/12/05 03:30 EST    0.86   1.22 -999 -999 -999  36.1  42.3 1003.2 -9.9 -9.999 -99.9 -99.99 -9.99
2019/12/05 03:36 EST    0.99   1.40 -999 -999 -999  36.1  42.3 1003.3 -9.9 -9.999 -99.9 -99.99 -9.99
2019/12/05 03:42 EST    1.12   1.58 -999 -999 -999  36.1  42.3 1003.4 -9.9 -9.999 -99.9 -99.99 -9.99
2019/12/05 03:48 EST    1.26   1.76 -999 -999 -999  36.1  42.1 1003.5 -9.9 -9.999 -99.9 -99.99 -9.99
2019/12/05 03:54 EST    1.40   1.93 -999 -999 -999  36.1  42.1 1003.5 -9.9 -9.999 -99.9 -99.99 -9.99
2019/12/05 04:00 EST    1.55   2.10 -999 -999 -999  36.1  42.1 1003.5 -9.9 -9.999 -99.9 -99.99 -9.99
2019/12/05 04:06 EST    1.69   2.27 -999 -999 -999  36.1  42.1 1003.7 -9.9 -9.999 -99.9 -99.99 -9.99
2019/12/05 04:12 EST    1.84   2.43 -999 -999 -999  36.1  42.1 1003.7 -9.9 -9.999 -99.9 -99.99 -9.99
2019/12/05 04:18 EST    1.98   2.59 -999 -999 -999  36.1  42.1 1003.9 -9.9 -9.999 -99.9 -99.99 -9.99
2019/12/05 04:24 EST    2.12   2.74 -999 -999 -999  36.1  42.1 1004.0 -9.9 -9.999 -99.9 -99.99 -9.99
2019/12/05 04:30 EST    2.26   2.88 -999 -999 -999  36.1  42.1 1004.1 -9.9 -9.999 -99.9 -99.99 -9.99
2019/12/05 04:36 EST    2.40   3.03 -999 -999 -999  36.1  42.1 1004.2 -9.9 -9.999 -99.9 -99.99 -9.99
2019/12/05 04:42 EST    2.52   3.18 -999 -999 -999  36.1  42.1 1004.3 -9.9 -9.999 -99.9 -99.99 -9.99
2019/12/05 04:48 EST    2.65   3.30 -999 -999 -999  36.3  42.1 1004.5 -9.9 -9.999 -99.9 -99.99 -9.99
2019/12/05 04:54 EST    2.77   3.43 -999 -999 -999  36.3  42.1 1004.5 -9.9 -9.999 -99.9 -99.99 -9.99
2019/12/05 05:00 EST    2.88   3.53 -999 -999 -999  36.3  42.1 1004.6 -9.9 -9.999 -99.9 -99.99 -9.99
2019/12/05 05:06 EST    2.99   3.64 -999 -999 -999  36.3  42.1 1004.7 -9.9 -9.999 -99.9 -99.99 -9.99
2019/12/05 05:12 EST    3.10   3.78 -999 -999 -999  36.3  42.1 1004.8 -9.9 -9.999 -99.9 -99.99 -9.99
2019/12/05 05:18 EST    3.20   3.90 -999 -999 -999  36.5  42.3 1004.9 -9.9 -9.999 -99.9 -99.99 -9.99
2019/12/05 05:24 EST    3.30   4.01 -999 -999 -999  36.7  42.3 1005.0 -9.9 -9.999 -99.9 -99.99 -9.99
2019/12/05 05:30 EST    3.40   4.07 -999 -999 -999  36.9  42.1 1005.2 -9.9 -9.999 -99.9 -99.99 -9.99
2019/12/05 05:36 EST    3.49   4.26 -999 -999 -999  37.2  42.1 1005.3 -9.9 -9.999 -99.9 -99.99 -9.99
2019/12/05 05:42 EST    3.59   4.38 -999 -999 -999  37.4  42.1 1005.5 -9.9 -9.999 -99.9 -99.99 -9.99
2019/12/05 05:48 EST    3.68   4.51 -999 -999 -999  37.6  42.1 1005.6 -9.9 -9.999 -99.9 -99.99 -9.99
2019/12/05 05:54 EST    3.77   4.63 -999 -999 -999  37.4  42.1 1005.7 -9.9 -9.999 -99.9 -99.99 -9.99
2019/12/05 06:00 EST    3.86   4.74 -999 -999 -999  37.4  42.1 1005.8 -9.9 -9.999 -99.9 -99.99 -9.99
2019/12/05 06:06 EST    3.96   4.84 -999 -999 -999  37.4  42.1 1005.9 -9.9 -9.999 -99.9 -99.99 -9.99
2019/12/05 06:12 EST    4.05   4.95 -999 -999 -999  37.4  42.1 1006.0 -9.9 -9.999 -99.9 -99.99 -9.99
2019/12/05 06:18 EST    4.15   5.07 -999 -999 -999  37.4  42.1 1006.2 -9.9 -9.999 -99.9 -99.99 -9.99
2019/12/05 06:24 EST    4.25   5.14 -999 -999 -999  37.4  42.1 1006.3 -9.9 -9.999 -99.9 -99.99 -9.99
2019/12/05 06:30 EST    4.35   5.24 -999 -999 -999  37.4  42.1 1006.5 -9.9 -9.999 -99.9 -99.99 -9.99
2019/12/05 06:36 EST    4.44   5.34 -999 -999 -999  37.4  42.1 1006.7 -9.9 -9.999 -99.9 -99.99 -9.99
2019/12/05 06:42 EST    4.54   5.43 -999 -999 -999  37.4  42.1 1006.8 -9.9 -9.999 -99.9 -99.99 -9.99
2019/12/05 06:48 EST    4.64   5.52 -999 -999 -999  37.4  42.1 1007.0 -9.9 -9.999 -99.9 -99.99 -9.99
2019/12/05 06:54 EST    4.74   5.60 -999 -999 -999  37.4  42.1 1007.1 -9.9 -9.999 -99.9 -99.99 -9.99
2019/12/05 07:00 EST    4.83   5.67 -999 -999 -999  37.4  42.1 1007.2 -9.9 -9.999 -99.9 -99.99 -9.99
2019/12/05 07:06 EST    4.92   5.76 -999 -999 -999  37.4  42.1 1007.4 -9.9 -9.999 -99.9 -99.99 -9.99
2019/12/05 07:12 EST    5.01   5.83 -999 -999 -999  37.6  42.1 1007.5 -9.9 -9.999 -99.9 -99.99 -9.99
2019/12/05 07:18 EST    5.10   5.92 -999 -999 -999  37.6  42.1 1007.7 -9.9 -9.999 -99.9 -99.99 -9.99
2019/12/05 07:24 EST    5.17   6.01 -999 -999 -999  37.8  42.1 1007.8 -9.9 -9.999 -99.9 -99.99 -9.99
2019/12/05 07:30 EST    5.24   6.08 -999 -999 -999  37.9  42.1 1008.0 -9.9 -9.999 -99.9 -99.99 -9.99
2019/12/05 07:36 EST    5.31   6.17 -999 -999 -999  37.9  42.1 1008.1 -9.9 -9.999 -99.9 -99.99 -9.99
2019/12/05 07:42 EST    5.36   6.23 -999 -999 -999  38.3  42.1 1008.2 -9.9 -9.999 -99.9 -99.99 -9.99
2019/12/05 07:48 EST    5.41   6.26 -999 -999 -999  38.3  42.1 1008.4 -9.9 -9.999 -99.9 -99.99 -9.99
2019/12/05 07:54 EST    5.45   6.32 -999 -999 -999  38.5  42.1 1008.5 -9.9 -9.999 -99.9 -99.99 -9.99
2019/12/05 08:00 EST    5.47   6.31 -999 -999 -999  38.7  42.1 1008.7 -9.9 -9.999 -99.9 -99.99 -9.99
2019/12/05 08:06 EST    5.49   6.36 -999 -999 -999  38.8  42.1 1008.8 -9.9 -9.999 -99.9 -99.99 -9.99
2019/12/05 08:12 EST    5.50   6.37 -999 -999 -999  39.0  42.1 1009.0 -9.9 -9.999 -99.9 -99.99 -9.99
2019/12/05 08:18 EST    5.49   6.38 -999 -999 -999  39.0  42.1 1009.0 -9.9 -9.999 -99.9 -99.99 -9.99
2019/12/05 08:24 EST    5.48   6.25 -999 -999 -999  39.2  42.1 1009.0 -9.9 -9.999 -99.9 -99.99 -9.99
2019/12/05 08:30 EST    5.46   6.30 -999 -999 -999  39.2  42.1 1009.1 -9.9 -9.999 -99.9 -99.99 -9.99
2019/12/05 08:36 EST    5.42   6.29 -999 -999 -999  39.2  42.1 1009.2 -9.9 -9.999 -99.9 -99.99 -9.99
2019/12/05 08:42 EST    5.38   6.22 -999 -999 -999  39.2  42.1 1009.4 -9.9 -9.999 -99.9 -99.99 -9.99
2019/12/05 08:48 EST    5.33   6.17 -999 -999 -999  39.2  42.1 1009.5 -9.9 -9.999 -99.9 -99.99 -9.99
2019/12/05 08:54 EST    5.27   6.10 -999 -999 -999  39.6  42.1 1009.6 -9.9 -9.999 -99.9 -99.99 -9.99
2019/12/05 09:00 EST    5.21   6.03 -999 -999 -999  40.1  42.1 1009.7 -9.9 -9.999 -99.9 -99.99 -9.99
2019/12/05 09:06 EST    5.13   5.93 -999 -999 -999  40.6  42.1 1009.8 -9.9 -9.999 -99.9 -99.99 -9.99
2019/12/05 09:12 EST    5.05   5.84 -999 -999 -999  41.2  42.1 1009.9 -9.9 -9.999 -99.9 -99.99 -9.99
2019/12/05 09:18 EST    4.97   5.75 -999 -999 -999  41.2  42.1 1010.0 -9.9 -9.999 -99.9 -99.99 -9.99
2019/12/05 09:24 EST    4.88   5.66 -999 -999 -999  41.5  42.1 1010.2 -9.9 -9.999 -99.9 -99.99 -9.99
2019/12/05 09:30 EST    4.78   5.55 -999 -999 -999  41.7  42.1 1010.3 -9.9 -9.999 -99.9 -99.99 -9.99
2019/12/05 09:36 EST    4.69   5.45 -999 -999 -999  42.1  42.1 1010.4 -9.9 -9.999 -99.9 -99.99 -9.99
2019/12/05 09:42 EST    4.59   5.35 -999 -999 -999  42.1  42.1 1010.5 -9.9 -9.999 -99.9 -99.99 -9.99
2019/12/05 09:48 EST    4.48   5.24 -999 -999 -999  42.4  42.1 1010.5 -9.9 -9.999 -99.9 -99.99 -9.99
2019/12/05 09:54 EST    4.38   5.15 -999 -999 -999  42.4  42.1 1010.6 -9.9 -9.999 -99.9 -99.99 -9.99
2019/12/05 10:00 EST    4.27   5.03 -999 -999 -999  42.8  42.1 1010.6 -9.9 -9.999 -99.9 -99.99 -9.99
2019/12/05 10:06 EST    4.16   4.92 -999 -999 -999  43.0  42.1 1010.7 -9.9 -9.999 -99.9 -99.99 -9.99
2019/12/05 10:12 EST    4.05   4.82 -999 -999 -999  43.3  42.1 1010.8 -9.9 -9.999 -99.9 -99.99 -9.99
2019/12/05 10:18 EST    3.94   4.72 -999 -999 -999  43.0  42.1 1010.9 -9.9 -9.999 -99.9 -99.99 -9.99
2019/12/05 10:24 EST    3.83   4.63 -999 -999 -999  42.8  42.1 1010.9 -9.9 -9.999 -99.9 -99.99 -9.99
2019/12/05 10:30 EST    3.71   4.52 -999 -999 -999  42.8  42.1 1010.9 -9.9 -9.999 -99.9 -99.99 -9.99
2019/12/05 10:36 EST    3.60   4.41 -999 -999 -999  43.0  42.1 1010.9 -9.9 -9.999 -99.9 -99.99 -9.99
2019/12/05 10:42 EST    3.49   4.29 -999 -999 -999  42.8  42.1 1010.8 -9.9 -9.999 -99.9 -99.99 -9.99
2019/12/05 10:48 EST    3.37   4.18 -999 -999 -999  43.3  42.1 1010.9 -9.9 -9.999 -99.9 -99.99 -9.99
2019/12/05 10:54 EST    3.26   4.08 -999 -999 -999  43.5  42.3 1010.7 -9.9 -9.999 -99.9 -99.99 -9.99
2019/12/05 11:00 EST    3.15   3.97 -999 -999 -999  43.5  42.3 1010.7 -9.9 -9.999 -99.9 -99.99 -9.99
2019/12/05 11:06 EST    3.04   3.87 -999 -999 -999  43.3  42.3 1010.6 -9.9 -9.999 -99.9 -99.99 -9.99
2019/12/05 11:12 EST    2.92   3.75 -999 -999 -999  43.5  42.3 1010.6 -9.9 -9.999 -99.9 -99.99 -9.99
2019/12/05 11:18 EST    2.81   3.64 -999 -999 -999  43.9  42.3 1010.6 -9.9 -9.999 -99.9 -99.99 -9.99
2019/12/05 11:24 EST    2.71   3.54 -999 -999 -999  43.5  42.3 1010.7 -9.9 -9.999 -99.9 -99.99 -9.99
2019/12/05 11:30 EST    2.60   3.43 -999 -999 -999  43.0  42.3 1010.7 -9.9 -9.999 -99.9 -99.99 -9.99
2019/12/05 11:36 EST    2.49   3.31 -999 -999 -999  43.0  42.3 1010.8 -9.9 -9.999 -99.9 -99.99 -9.99
2019/12/05 11:42 EST    2.39   3.21 -999 -999 -999  43.0  42.3 1010.7 -9.9 -9.999 -99.9 -99.99 -9.99
2019/12/05 11:48 EST    2.29   3.10 -999 -999 -999  43.2  42.3 1010.7 -9.9 -9.999 -99.9 -99.99 -9.99
2019/12/05 11:54 EST    2.19   3.01 -999 -999 -999  43.5  42.3 1010.7 -9.9 -9.999 -99.9 -99.99 -9.99
2019/12/05 12:00 EST    2.09   2.91 -999 -999 -999  44.6  42.3 1010.7 -9.9 -9.999 -99.9 -99.99 -9.99
2019/12/05 12:06 EST    1.99   2.81 -999 -999 -999  44.2  42.3 1010.7 -9.9 -9.999 -99.9 -99.99 -9.99
2019/12/05 12:12 EST    1.90   2.71 -999 -999 -999  44.1  42.3 1010.6 -9.9 -9.999 -99.9 -99.99 -9.99
2019/12/05 12:18 EST    1.81   2.60 -999 -999 -999  43.9  42.3 1010.6 -9.9 -9.999 -99.9 -99.99 -9.99
2019/12/05 12:24 EST    1.72   2.48 -999 -999 -999  43.9  42.3 1010.6 -9.9 -9.999 -99.9 -99.99 -9.99
2019/12/05 12:30 EST    1.63   2.39 -999 -999 -999  43.9  42.3 1010.6 -9.9 -9.999 -99.9 -99.99 -9.99
2019/12/05 12:36 EST    1.54   2.28 -999 -999 -999  43.7  42.3 1010.7 -9.9 -9.999 -99.9 -99.99 -9.99
2019/12/05 12:42 EST    1.46   2.19 -999 -999 -999  43.5  42.3 1010.7 -9.9 -9.999 -99.9 -99.99 -9.99
2019/12/05 12:48 EST    1.38   2.08 -999 -999 -999  44.1  42.3 1010.9 -9.9 -9.999 -99.9 -99.99 -9.99
2019/12/05 12:54 EST    1.29   1.98 -999 -999 -999  43.5  42.3 1010.9 -9.9 -9.999 -99.9 -99.99 -9.99
2019/12/05 13:00 EST    1.21   1.86 -999 -999 -999  43.7  42.3 1010.9 -9.9 -9.999 -99.9 -99.99 -9.99
2019/12/05 13:06 EST    1.13   1.76 -999 -999 -999  43.7  42.3 1011.0 -9.9 -9.999 -99.9 -99.99 -9.99
2019/12/05 13:12 EST    1.06   1.67 -999 -999 -999  43.5  42.3 1011.0 -9.9 -9.999 -99.9 -99.99 -9.99
2019/12/05 13:18 EST    0.98   1.57 -999 -999 -999  43.9  42.3 1011.1 -9.9 -9.999 -99.9 -99.99 -9.99
2019/12/05 13:24 EST    0.90   1.47 -999 -999 -999  43.7  42.3 1011.1 -9.9 -9.999 -99.9 -99.99 -9.99
2019/12/05 13:30 EST    0.83   1.38 -999 -999 -999  43.9  42.3 1011.1 -9.9 -9.999 -99.9 -99.99 -9.99
2019/12/05 13:36 EST    0.76   1.29 -999 -999 -999  44.1  42.3 1011.2 -9.9 -9.999 -99.9 -99.99 -9.99
2019/12/05 13:42 EST    0.69   1.21 -999 -999 -999  43.9  42.3 1011.2 -9.9 -9.999 -99.9 -99.99 -9.99
2019/12/05 13:48 EST    0.62   1.11 -999 -999 -999  44.1  42.3 1011.5 -9.9 -9.999 -99.9 -99.99 -9.99
2019/12/05 13:54 EST    0.56   1.02 -999 -999 -999  43.9  42.3 1011.5 -9.9 -9.999 -99.9 -99.99 -9.99
2019/12/05 14:00 EST    0.50   0.93 -999 -999 -999  44.1  42.3 1011.6 -9.9 -9.999 -99.9 -99.99 -9.99
2019/12/05 14:06 EST    0.45   0.85 -999 -999 -999  44.1  42.3 1011.7 -9.9 -9.999 -99.9 -99.99 -9.99
2019/12/05 14:12 EST    0.40   0.78 -999 -999 -999  43.9  42.3 1011.8 -9.9 -9.999 -99.9 -99.99 -9.99
2019/12/05 14:18 EST    0.37   0.72 -999 -999 -999  43.9  42.3 1011.9 -9.9 -9.999 -99.9 -99.99 -9.99
2019/12/05 14:24 EST    0.34   0.63 -999 -999 -999  43.9  42.3 1012.0 -9.9 -9.999 -99.9 -99.99 -9.99
2019/12/05 14:30 EST    0.31   0.58 -999 -999 -999  43.7  42.3 1012.0 -9.9 -9.999 -99.9 -99.99 -9.99
2019/12/05 14:36 EST    0.30   0.51 -999 -999 -999  43.7  42.3 1012.1 -9.9 -9.999 -99.9 -99.99 -9.99
2019/12/05 14:42 EST    0.30   0.47 -999 -999 -999  43.7  42.3 1012.1 -9.9 -9.999 -99.9 -99.99 -9.99
2019/12/05 14:48 EST    0.31   0.41 -999 -999 -999  43.5  42.3 1012.3 -9.9 -9.999 -99.9 -99.99 -9.99
2019/12/05 14:54 EST    0.33   0.38 -999 -999 -999  43.5  42.3 1012.4 -9.9 -9.999 -99.9 -99.99 -9.99
2019/12/05 15:00 EST    0.37   0.35 -999 -999 -999  43.5  42.3 1012.5 -9.9 -9.999 -99.9 -99.99 -9.99
2019/12/05 15:06 EST    0.41   0.32 -999 -999 -999  43.3  42.3 1012.7 -9.9 -9.999 -99.9 -99.99 -9.99
2019/12/05 15:12 EST    0.47   0.31 -999 -999 -999  43.3  42.3 1012.8 -9.9 -9.999 -99.9 -99.99 -9.99
2019/12/05 15:18 EST    0.54   0.31 -999 -999 -999  43.3  42.3 1012.9 -9.9 -9.999 -99.9 -99.99 -9.99
2019/12/05 15:24 EST    0.63   0.33 -999 -999 -999  43.3  42.3 1013.1 -9.9 -9.999 -99.9 -99.99 -9.99
2019/12/05 15:30 EST    0.72   0.36 -999 -999 -999  43.3  42.1 1013.1 -9.9 -9.999 -99.9 -99.99 -9.99
2019/12/05 15:36 EST    0.83   0.42 -999 -999 -999  43.3  42.1 1013.2 -9.9 -9.999 -99.9 -99.99 -9.99
2019/12/05 15:42 EST    0.94   0.50 -999 -999 -999  43.3  42.3 1013.3 -9.9 -9.999 -99.9 -99.99 -9.99
2019/12/05 15:48 EST    1.07   0.59 -999 -999 -999  43.3  42.3 1013.5 -9.9 -9.999 -99.9 -99.99 -9.99
2019/12/05 15:54 EST    1.21   0.68 -999 -999 -999  43.3  42.3 1013.7 -9.9 -9.999 -99.9 -99.99 -9.99
2019/12/05 16:00 EST    1.35   0.77 -999 -999 -999  43.2  42.3 1013.9 -9.9 -9.999 -99.9 -99.99 -9.99
2019/12/05 16:06 EST    1.49   0.88 -999 -999 -999  43.3  42.3 1014.1 -9.9 -9.999 -99.9 -99.99 -9.99
2019/12/05 16:12 EST    1.65   0.97 -999 -999 -999  43.2  42.3 1014.2 -9.9 -9.999 -99.9 -99.99 -9.99
2019/12/05 16:18 EST    1.80   1.12 -999 -999 -999  43.2  42.3 1014.3 -9.9 -9.999 -99.9 -99.99 -9.99
2019/12/05 16:24 EST    1.96   1.25 -999 -999 -999  43.2  42.3 1014.4 -9.9 -9.999 -99.9 -99.99 -9.99
2019/12/05 16:30 EST    2.11   1.40 -999 -999 -999  43.0  42.3 1014.5 -9.9 -9.999 -99.9 -99.99 -9.99
2019/12/05 16:36 EST    2.27   1.54 -999 -999 -999  43.0  42.3 1014.6 -9.9 -9.999 -99.9 -99.99 -9.99
2019/12/05 16:42 EST    2.42   1.69 -999 -999 -999  43.0  42.1 1014.7 -9.9 -9.999 -99.9 -99.99 -9.99
2019/12/05 16:48 EST    2.57   1.84 -999 -999 -999  43.0  42.3 1014.8 -9.9 -9.999 -99.9 -99.99 -9.99
2019/12/05 16:54 EST    2.72   2.00 -999 -999 -999  43.0  42.1 1014.8 -9.9 -9.999 -99.9 -99.99 -9.99
2019/12/05 17:00 EST    2.86   2.14 -999 -999 -999  43.0  42.3 1015.1 -9.9 -9.999 -99.9 -99.99 -9.99
2019/12/05 17:06 EST    2.99   2.27 -999 -999 -999  43.0  42.3 1015.2 -9.9 -9.999 -99.9 -99.99 -9.99
2019/12/05 17:12 EST    3.12   2.41 -999 -999 -999  43.0  42.3 1015.3 -9.9 -9.999 -99.9 -99.99 -9.99
2019/12/05 17:18 EST    3.25   2.54 -999 -999 -999  43.0  42.3 1015.4 -9.9 -9.999 -99.9 -99.99 -9.99
2019/12/05 17:24 EST    3.37   2.68 -999 -999 -999  43.0  42.3 1015.5 -9.9 -9.999 -99.9 -99.99 -9.99
2019/12/05 17:30 EST    3.48   2.83 -999 -999 -999  43.0  42.3 1015.7 -9.9 -9.999 -99.9 -99.99 -9.99
2019/12/05 17:36 EST    3.59   2.96 -999 -999 -999  43.0  42.3 1015.8 -9.9 -9.999 -99.9 -99.99 -9.99
2019/12/05 17:42 EST    3.69   3.08 -999 -999 -999  42.8  42.3 1015.9 -9.9 -9.999 -99.9 -99.99 -9.99
2019/12/05 17:48 EST    3.79   3.19 -999 -999 -999  42.8  42.3 1015.9 -9.9 -9.999 -99.9 -99.99 -9.99
2019/12/05 17:54 EST    3.89   3.31 -999 -999 -999  42.8  42.3 1016.0 -9.9 -9.999 -99.9 -99.99 -9.99
2019/12/05 18:00 EST    3.98   3.45 -999 -999 -999  42.8  42.3 1016.1 -9.9 -9.999 -99.9 -99.99 -9.99
2019/12/05 18:06 EST    4.07   3.57 -999 -999 -999  42.6  42.3 1016.2 -9.9 -9.999 -99.9 -99.99 -9.99
2019/12/05 18:12 EST    4.16   3.69 -999 -999 -999  42.6  42.3 1016.2 -9.9 -9.999 -99.9 -99.99 -9.99
2019/12/05 18:18 EST    4.25   3.81 -999 -999 -999  42.8  42.3 1016.4 -9.9 -9.999 -99.9 -99.99 -9.99
2019/12/05 18:24 EST    4.34   3.94 -999 -999 -999  42.6  42.3 1016.4 -9.9 -9.999 -99.9 -99.99 -9.99
2019/12/05 18:30 EST    4.43   4.06 -999 -999 -999  42.6  42.3 1016.5 -9.9 -9.999 -99.9 -99.99 -9.99
2019/12/05 18:36 EST    4.52   4.16 -999 -999 -999  42.6  42.3 1016.6 -9.9 -9.999 -99.9 -99.99 -9.99
2019/12/05 18:42 EST    4.61   4.26 -999 -999 -999  42.6  42.3 1016.7 -9.9 -9.999 -99.9 -99.99 -9.99
2019/12/05 18:48 EST    4.70   4.35 -999 -999 -999  42.6  42.3 1016.8 -9.9 -9.999 -99.9 -99.99 -9.99
2019/12/05 18:54 EST    4.79   4.45 -999 -999 -999  42.6  42.1 1016.8 -9.9 -9.999 -99.9 -99.99 -9.99
2019/12/05 19:00 EST    4.88   4.57 -999 -999 -999  42.6  42.1 1016.9 -9.9 -9.999 -99.9 -99.99 -9.99
2019/12/05 19:06 EST    4.97   4.66 -999 -999 -999  42.4  42.1 1017.0 -9.9 -9.999 -99.9 -99.99 -9.99
2019/12/05 19:12 EST    5.06   4.74 -999 -999 -999  42.4  42.1 1017.2 -9.9 -9.999 -99.9 -99.99 -9.99
2019/12/05 19:18 EST    5.15   4.84 -999 -999 -999  42.4  42.1 1017.4 -9.9 -9.999 -99.9 -99.99 -9.99
2019/12/05 19:24 EST    5.23   4.90 -999 -999 -999  42.4  42.1 1017.6 -9.9 -9.999 -99.9 -99.99 -9.99
2019/12/05 19:30 EST    5.32   4.98 -999 -999 -999  42.4  42.1 1017.8 -9.9 -9.999 -99.9 -99.99 -9.99
2019/12/05 19:36 EST    5.39   5.06 -999 -999 -999  42.6  42.1 1017.8 -9.9 -9.999 -99.9 -99.99 -9.99
2019/12/05 19:42 EST    5.47   5.11 -999 -999 -999  42.4  42.1 1017.8 -9.9 -9.999 -99.9 -99.99 -9.99
2019/12/05 19:48 EST    5.54   5.16 -999 -999 -999  42.4  42.1 1017.9 -9.9 -9.999 -99.9 -99.99 -9.99
2019/12/05 19:54 EST    5.60   5.22 -999 -999 -999  42.4  42.1 1017.9 -9.9 -9.999 -99.9 -99.99 -9.99
2019/12/05 20:00 EST    5.65   5.27 -999 -999 -999  42.4  42.1 1017.8 -9.9 -9.999 -99.9 -99.99 -9.99
2019/12/05 20:06 EST    5.70   5.32 -999 -999 -999  42.3  42.1 1017.8 -9.9 -9.999 -99.9 -99.99 -9.99
2019/12/05 20:12 EST    5.74   5.32 -999 -999 -999  42.3  42.1 1017.9 -9.9 -9.999 -99.9 -99.99 -9.99
2019/12/05 20:18 EST    5.76   5.39 -999 -999 -999  42.3  42.1 1017.9 -9.9 -9.999 -99.9 -99.99 -9.99
2019/12/05 20:24 EST    5.78   5.42 -999 -999 -999  42.1  42.1 1018.0 -9.9 -9.999 -99.9 -99.99 -9.99
2019/12/05 20:30 EST    5.79   5.42 -999 -999 -999  42.1  42.1 1018.0 -9.9 -9.999 -99.9 -99.99 -9.99
2019/12/05 20:36 EST    5.79   5.43 -999 -999 -999  41.9  42.1 1018.0 -9.9 -9.999 -99.9 -99.99 -9.99
2019/12/05 20:42 EST    5.78   5.43 -999 -999 -999  41.9  42.1 1018.1 -9.9 -9.999 -99.9 -99.99 -9.99
2019/12/05 20:48 EST    5.75   5.41 -999 -999 -999  41.9  42.1 1018.3 -9.9 -9.999 -99.9 -99.99 -9.99
2019/12/05 20:54 EST    5.72   5.38 -999 -999 -999  41.9  42.1 1018.3 -9.9 -9.999 -99.9 -99.99 -9.99
2019/12/05 21:00 EST    5.68   5.35 -999 -999 -999  41.9  42.1 1018.4 -9.9 -9.999 -99.9 -99.99 -9.99
2019/12/05 21:06 EST    5.63   5.31 -999 -999 -999  41.7  42.1 1018.5 -9.9 -9.999 -99.9 -99.99 -9.99
2019/12/05 21:12 EST    5.57   5.26 -999 -999 -999  41.7  42.1 1018.7 -9.9 -9.999 -99.9 -99.99 -9.99
2019/12/05 21:18 EST    5.51   5.23 -999 -999 -999  41.9  42.1 1018.8 -9.9 -9.999 -99.9 -99.99 -9.99
2019/12/05 21:24 EST    5.43   5.19 -999 -999 -999  41.9  42.1 1018.9 -9.9 -9.999 -99.9 -99.99 -9.99
2019/12/05 21:30 EST    5.35   5.14 -999 -999 -999  41.9  42.1 1019.0 -9.9 -9.999 -99.9 -99.99 -9.99
2019/12/05 21:36 EST    5.26   5.08 -999 -999 -999  41.9  42.1 1019.0 -9.9 -9.999 -99.9 -99.99 -9.99
2019/12/05 21:42 EST    5.17   5.01 -999 -999 -999  41.7  42.1 1019.1 -9.9 -9.999 -99.9 -99.99 -9.99
2019/12/05 21:48 EST    5.08   4.95 -999 -999 -999  41.5  42.1 1019.2 -9.9 -9.999 -99.9 -99.99 -9.99
2019/12/05 21:54 EST    4.98   4.88 -999 -999 -999  41.5  42.1 1019.2 -9.9 -9.999 -99.9 -99.99 -9.99
2019/12/05 22:00 EST    4.87   4.80 -999 -999 -999  41.4  42.1 1019.2 -9.9 -9.999 -99.9 -99.99 -9.99
2019/12/05 22:06 EST    4.77   4.74 -999 -999 -999  41.4  42.1 1019.3 -9.9 -9.999 -99.9 -99.99 -9.99
2019/12/05 22:12 EST    4.66   4.67 -999 -999 -999  41.2  42.1 1019.4 -9.9 -9.999 -99.9 -99.99 -9.99
2019/12/05 22:18 EST    4.55   4.59 -999 -999 -999  41.2  42.1 1019.6 -9.9 -9.999 -99.9 -99.99 -9.99
2019/12/05 22:24 EST    4.43   4.51 -999 -999 -999  41.2  42.1 1019.6 -9.9 -9.999 -99.9 -99.99 -9.99
2019/12/05 22:30 EST    4.32   4.43 -999 -999 -999  41.2  42.1 1019.7 -9.9 -9.999 -99.9 -99.99 -9.99
2019/12/05 22:36 EST    4.20   4.35 -999 -999 -999  41.2  42.1 1019.8 -9.9 -9.999 -99.9 -99.99 -9.99
2019/12/05 22:42 EST    4.09   4.26 -999 -999 -999  41.2  42.1 1019.7 -9.9 -9.999 -99.9 -99.99 -9.99
2019/12/05 22:48 EST    3.97   4.17 -999 -999 -999  41.0  42.1 1019.7 -9.9 -9.999 -99.9 -99.99 -9.99
2019/12/05 22:54 EST    3.85   4.08 -999 -999 -999  41.0  42.1 1019.8 -9.9 -9.999 -99.9 -99.99 -9.99
2019/12/05 23:00 EST    3.74   3.98 -999 -999 -999  41.0  42.1 1019.8 -9.9 -9.999 -99.9 -99.99 -9.99
2019/12/05 23:06 EST    3.62   3.89 -999 -999 -999  40.8  42.1 1019.9 -9.9 -9.999 -99.9 -99.99 -9.99
2019/12/05 23:12 EST    3.50   3.79 -999 -999 -999  40.6  42.1 1019.9 -9.9 -9.999 -99.9 -99.99 -9.99
2019/12/05 23:18 EST    3.38   3.69 -999 -999 -999  40.5  42.1 1020.0 -9.9 -9.999 -99.9 -99.99 -9.99
2019/12/05 23:24 EST    3.27   3.59 -999 -999 -999  40.1  42.1 1020.1 -9.9 -9.999 -99.9 -99.99 -9.99
2019/12/05 23:30 EST    3.15   3.49 -999 -999 -999  39.7  42.1 1020.1 -9.9 -9.999 -99.9 -99.99 -9.99
2019/12/05 23:36 EST    3.04   3.39 -999 -999 -999  39.4  42.1 1020.2 -9.9 -9.999 -99.9 -99.99 -9.99
2019/12/05 23:42 EST    2.92   3.28 -999 -999 -999  39.7  42.1 1020.2 -9.9 -9.999 -99.9 -99.99 -9.99
2019/12/05 23:48 EST    2.81   3.18 -999 -999 -999  39.9  42.1 1020.2 -9.9 -9.999 -99.9 -99.99 -9.99
2019/12/05 23:54 EST    2.70   3.08 -999 -999 -999  39.9  42.1 1020.3 -9.9 -9.999 -99.9 -99.99 -9.99
2019/12/06 00:00 EST    2.59   2.98 -999 -999 -999  39.9  42.1 1020.3 -9.9 -9.999 -99.9 -99.99 -9.99
2019/12/06 00:06 EST    2.48   2.88 -999 -999 -999  39.9  42.1 1020.3 -9.9 -9.999 -99.9 -99.99 -9.99
2019/12/06 00:12 EST    2.37   2.78 -999 -999 -999  39.9  42.1 1020.4 -9.9 -9.999 -99.9 -99.99 -9.99
2019/12/06 00:18 EST    2.27   2.66 -999 -999 -999  39.7  42.1 1020.4 -9.9 -9.999 -99.9 -99.99 -9.99
2019/12/06 00:24 EST    2.16   2.56 -999 -999 -999  39.6  42.1 1020.4 -9.9 -9.999 -99.9 -99.99 -9.99
2019/12/06 00:30 EST    2.06   2.44 -999 -999 -999  39.4  42.1 1020.4 -9.9 -9.999 -99.9 -99.99 -9.99
2019/12/06 00:36 EST    1.96   2.35 -999 -999 -999  39.0  42.1 1020.3 -9.9 -9.999 -99.9 -99.99 -9.99
2019/12/06 00:42 EST    1.87   2.24 -999 -999 -999  38.7  42.1 1020.5 -9.9 -9.999 -99.9 -99.99 -9.99
2019/12/06 00:48 EST    1.77   2.13 -999 -999 -999  38.3  42.1 1020.6 -9.9 -9.999 -99.9 -99.99 -9.99
2019/12/06 00:54 EST    1.68   2.03 -999 -999 -999  38.3  42.1 1020.5 -9.9 -9.999 -99.9 -99.99 -9.99
2019/12/06 01:00 EST    1.58   1.94 -999 -999 -999  38.3  42.1 1020.6 -9.9 -9.999 -99.9 -99.99 -9.99
2019/12/06 01:06 EST    1.49   1.83 -999 -999 -999  38.1  42.1 1020.8 -9.9 -9.999 -99.9 -99.99 -9.99
2019/12/06 01:12 EST    1.40   1.73 -999 -999 -999  38.1  42.1 1020.7 -9.9 -9.999 -99.9 -99.99 -9.99
2019/12/06 01:18 EST    1.31   1.63 -999 -999 -999  37.8  42.1 1020.8 -9.9 -9.999 -99.9 -99.99 -9.99
2019/12/06 01:24 EST    1.22   1.53 -999 -999 -999  37.6  42.1 1020.9 -9.9 -9.999 -99.9 -99.99 -9.99
2019/12/06 01:30 EST    1.13   1.42 -999 -999 -999  37.6  42.1 1020.9 -9.9 -9.999 -99.9 -99.99 -9.99
2019/12/06 01:36 EST    1.04   1.33 -999 -999 -999  37.6  42.1 1020.9 -9.9 -9.999 -99.9 -99.99 -9.99
2019/12/06 01:42 EST    0.95   1.23 -999 -999 -999  37.4  42.1 1021.1 -9.9 -9.999 -99.9 -99.99 -9.99
2019/12/06 01:48 EST    0.87   1.13 -999 -999 -999  37.4  42.1 1021.2 -9.9 -9.999 -99.9 -99.99 -9.99
2019/12/06 01:54 EST    0.78   1.04 -999 -999 -999  37.4  42.1 1021.2 -9.9 -9.999 -99.9 -99.99 -9.99
2019/12/06 02:00 EST    0.70   0.95 -999 -999 -999  37.2  42.1 1021.3 -9.9 -9.999 -99.9 -99.99 -9.99
2019/12/06 02:06 EST    0.62   0.85 -999 -999 -999  37.2  42.1 1021.2 -9.9 -9.999 -99.9 -99.99 -9.99
2019/12/06 02:12 EST    0.54   0.76 -999 -999 -999  37.0  42.1 1021.3 -9.9 -9.999 -99.9 -99.99 -9.99
2019/12/06 02:18 EST    0.46   0.68 -999 -999 -999  37.0  42.1 1021.4 -9.9 -9.999 -99.9 -99.99 -9.99
2019/12/06 02:24 EST    0.39   0.59 -999 -999 -999  37.0  42.1 1021.4 -9.9 -9.999 -99.9 -99.99 -9.99
2019/12/06 02:30 EST    0.33   0.51 -999 -999 -999  36.9  42.1 1021.4 -9.9 -9.999 -99.9 -99.99 -9.99
2019/12/06 02:36 EST    0.27   0.43 -999 -999 -999  36.9  42.1 1021.4 -9.9 -9.999 -99.9 -99.99 -9.99
2019/12/06 02:42 EST    0.21   0.34 -999 -999 -999  36.7  42.1 1021.5 -9.9 -9.999 -99.9 -99.99 -9.99
2019/12/06 02:48 EST    0.17   0.27 -999 -999 -999  36.7  42.1 1021.4 -9.9 -9.999 -99.9 -99.99 -9.99
2019/12/06 02:54 EST    0.13   0.20 -999 -999 -999  36.7  42.1 1021.3 -9.9 -9.999 -99.9 -99.99 -9.99
2019/12/06 03:00 EST    0.10   0.13 -999 -999 -999  36.7  42.1 1021.2 -9.9 -9.999 -99.9 -99.99 -9.99
2019/12/06 03:06 EST    0.08   0.07 -999 -999 -999  36.7  42.1 1021.3 -9.9 -9.999 -99.9 -99.99 -9.99
2019/12/06 03:12 EST    0.07   0.00 -999 -999 -999  36.7  42.1 1021.3 -9.9 -9.999 -99.9 -99.99 -9.99
2019/12/06 03:18 EST    0.08  -0.05 -999 -999 -999  36.7  42.1 1021.2 -9.9 -9.999 -99.9 -99.99 -9.99
2019/12/06 03:24 EST    0.09  -0.10 -999 -999 -999  36.7  42.1 1021.1 -9.9 -9.999 -99.9 -99.99 -9.99
2019/12/06 03:30 EST    0.12  -0.14 -999 -999 -999  36.7  42.1 1021.0 -9.9 -9.999 -99.9 -99.99 -9.99
2019/12/06 03:36 EST    0.17  -0.16 -999 -999 -999  36.5  42.1 1021.0 -9.9 -9.999 -99.9 -99.99 -9.99
2019/12/06 03:42 EST    0.22  -0.16 -999 -999 -999  36.3  42.1 1021.0 -9.9 -9.999 -99.9 -99.99 -9.99
2019/12/06 03:48 EST    0.29  -0.15 -999 -999 -999  36.3  42.1 1021.0 -9.9 -9.999 -99.9 -99.99 -9.99
2019/12/06 03:54 EST    0.37  -0.11 -999 -999 -999  36.1  42.1 1021.0 -9.9 -9.999 -99.9 -99.99 -9.99
2019/12/06 04:00 EST    0.46  -0.03 -999 -999 -999  36.1  42.1 1021.0 -9.9 -9.999 -99.9 -99.99 -9.99
2019/12/06 04:06 EST    0.56   0.08 -999 -999 -999  36.1  42.1 1020.9 -9.9 -9.999 -99.9 -99.99 -9.99
2019/12/06 04:12 EST    0.67   0.24 -999 -999 -999  36.0  42.1 1020.8 -9.9 -9.999 -99.9 -99.99 -9.99
2019/12/06 04:18 EST    0.79   0.42 -999 -999 -999  36.0  42.1 1020.8 -9.9 -9.999 -99.9 -99.99 -9.99
2019/12/06 04:24 EST    0.92   0.62 -999 -999 -999  36.0  41.9 1020.7 -9.9 -9.999 -99.9 -99.99 -9.99
2019/12/06 04:30 EST    1.06   0.82 -999 -999 -999  35.8  41.9 1020.8 -9.9 -9.999 -99.9 -99.99 -9.99
2019/12/06 04:36 EST    1.20   1.03 -999 -999 -999  35.8  41.9 1020.7 -9.9 -9.999 -99.9 -99.99 -9.99
2019/12/06 04:42 EST    1.34   1.22 -999 -999 -999  35.6  41.9 1020.7 -9.9 -9.999 -99.9 -99.99 -9.99
2019/12/06 04:48 EST    1.49   1.41 -999 -999 -999  35.6  41.7 1020.8 -9.9 -9.999 -99.9 -99.99 -9.99
2019/12/06 04:54 EST    1.63   1.59 -999 -999 -999  35.6  41.9 1020.8 -9.9 -9.999 -99.9 -99.99 -9.99
2019/12/06 05:00 EST    1.78   1.78 -999 -999 -999  35.6  41.7 1021.0 -9.9 -9.999 -99.9 -99.99 -9.99
2019/12/06 05:06 EST    1.93   1.96 -999 -999 -999  35.6  41.7 1020.9 -9.9 -9.999 -99.9 -99.99 -9.99
2019/12/06 05:12 EST    2.07   2.13 -999 -999 -999  35.8  41.7 1020.9 -9.9 -9.999 -99.9 -99.99 -9.99
2019/12/06 05:18 EST    2.21   2.29 -999 -999 -999  36.0  41.7 1020.9 -9.9 -9.999 -99.9 -99.99 -9.99
2019/12/06 05:24 EST    2.35   2.44 -999 -999 -999  36.0  41.7 1020.9 -9.9 -9.999 -99.9 -99.99 -9.99
2019/12/06 05:30 EST    2.49   2.59 -999 -999 -999  36.0  41.7 1020.9 -9.9 -9.999 -99.9 -99.99 -9.99
2019/12/06 05:36 EST    2.62   2.74 -999 -999 -999  35.6  41.9 1020.9 -9.9 -9.999 -99.9 -99.99 -9.99
2019/12/06 05:42 EST    2.74   2.88 -999 -999 -999  35.8  41.7 1020.9 -9.9 -9.999 -99.9 -99.99 -9.99
2019/12/06 05:48 EST    2.86   3.02 -999 -999 -999  35.8  41.9 1020.9 -9.9 -9.999 -99.9 -99.99 -9.99
2019/12/06 05:54 EST    2.97   3.15 -999 -999 -999  35.4  41.9 1020.9 -9.9 -9.999 -99.9 -99.99 -9.99
2019/12/06 06:00 EST    3.09   3.28 -999 -999 -999  35.1  41.9 1020.9 -9.9 -9.999 -99.9 -99.99 -9.99
2019/12/06 06:06 EST    3.19 -99.99 -999 -999 -999 -99.9 -99.9 -999.9 -9.9 -9.999 -99.9 -99.99 -9.99
2019/12/06 06:12 EST    3.30 -99.99 -999 -999 -999 -99.9 -99.9 -999.9 -9.9 -9.999 -99.9 -99.99 -9.99